Wetterdaten: Donnerstag, 02.03.2023
Datum Zeit Temp. Aussen Temp. o. S. Temp +5cm Feuchte Auss Luftdruck Regen Sonnenschein Regendauer Solar Windben Empfang
02.03.2023 00:00 0,6 C -0,6 C -3,9 C 78 % 1024,1 hPa 0,0 l/m 0 min 0 min 0 W/m 6,4 km/h (2 Bft) 100,00 %
02.03.2023 00:02 0,6 C -0,6 C -3,9 C 78 % 1024,1 hPa 0,0 l/m 0 min 0 min 0 W/m 3,2 km/h (1 Bft) 95,83 %
02.03.2023 00:04 0,6 C -0,6 C -3,9 C 78 % 1024,1 hPa 0,0 l/m 0 min 0 min 0 W/m 6,4 km/h (2 Bft) 95,74 %
02.03.2023 00:07 0,6 C -0,6 C -3,9 C 78 % 1024,1 hPa 0,0 l/m 0 min 0 min 0 W/m 3,2 km/h (1 Bft) 97,14 %
02.03.2023 00:10 0,6 C -1,1 C -3,9 C 78 % 1024,1 hPa 0,0 l/m 0 min 0 min 0 W/m 0,0 km/h (0 Bft) 100,00 %
02.03.2023 00:15 0,6 C -1,1 C -3,9 C 78 % 1024,2 hPa 0,0 l/m 0 min 0 min 0 W/m 3,2 km/h (1 Bft) 95,31 %
02.03.2023 00:16 0,6 C -1,1 C -4,4 C 78 % 1024,2 hPa 0,0 l/m 0 min 0 min 0 W/m 3,2 km/h (1 Bft) 95,65 %
02.03.2023 00:18 0,5 C -1,1 C -4,4 C 78 % 1024,1 hPa 0,0 l/m 0 min 0 min 0 W/m 3,2 km/h (1 Bft) 95,74 %
02.03.2023 00:20 0,4 C -1,1 C -4,4 C 78 % 1024,2 hPa 0,0 l/m 0 min 0 min 0 W/m 6,4 km/h (2 Bft) 98,00 %
02.03.2023 00:22 0,4 C -1,1 C -4,4 C 78 % 1024,2 hPa 0,0 l/m 0 min 0 min 0 W/m 3,2 km/h (1 Bft) 92,50 %
02.03.2023 00:24 0,4 C -1,1 C -4,4 C 79 % 1024,2 hPa 0,0 l/m 0 min 0 min 0 W/m 3,2 km/h (1 Bft) 97,87 %
02.03.2023 00:26 0,4 C -1,1 C -4,4 C 79 % 1024,2 hPa 0,0 l/m 0 min 0 min 0 W/m 6,4 km/h (2 Bft) 97,83 %
02.03.2023 00:28 0,3 C -1,1 C -4,4 C 79 % 1024,2 hPa 0,0 l/m 0 min 0 min 0 W/m 9,7 km/h (2 Bft) 97,87 %
02.03.2023 00:30 0,3 C -1,1 C -4,4 C 79 % 1024,1 hPa 0,0 l/m 0 min 0 min 0 W/m 3,2 km/h (1 Bft) 97,87 %
02.03.2023 00:32 0,3 C -1,1 C -4,4 C 79 % 1024,2 hPa 0,0 l/m 0 min 0 min 0 W/m 3,2 km/h (1 Bft) 95,74 %
02.03.2023 00:34 0,3 C -1,1 C -4,4 C 79 % 1024,2 hPa 0,0 l/m 0 min 0 min 0 W/m 6,4 km/h (2 Bft) 93,62 %
02.03.2023 00:36 0,3 C -1,1 C -4,4 C 79 % 1024,2 hPa 0,0 l/m 0 min 0 min 0 W/m 9,7 km/h (2 Bft) 97,87 %
02.03.2023 00:38 0,3 C -1,1 C -4,4 C 79 % 1024,1 hPa 0,0 l/m 0 min 0 min 0 W/m 12,9 km/h (3 Bft) 97,87 %
02.03.2023 00:40 0,3 C -1,1 C -4,4 C 79 % 1024,2 hPa 0,0 l/m 0 min 0 min 0 W/m 3,2 km/h (1 Bft) 95,65 %
02.03.2023 00:42 0,3 C -0,6 C -3,9 C 79 % 1024,2 hPa 0,0 l/m 0 min 0 min 0 W/m 6,4 km/h (2 Bft) 95,74 %
02.03.2023 00:44 0,3 C -0,6 C -3,9 C 80 % 1024,2 hPa 0,0 l/m 0 min 0 min 0 W/m 6,4 km/h (2 Bft) 95,74 %
02.03.2023 00:46 0,3 C -0,6 C -3,9 C 80 % 1024,2 hPa 0,0 l/m 0 min 0 min 0 W/m 6,4 km/h (2 Bft) 95,74 %
02.03.2023 00:48 0,3 C -0,6 C -3,9 C 80 % 1024,2 hPa 0,0 l/m 0 min 0 min 0 W/m 6,4 km/h (2 Bft) 95,74 %
02.03.2023 00:50 0,3 C -0,6 C -3,9 C 80 % 1024,2 hPa 0,0 l/m 0 min 0 min 0 W/m 6,4 km/h (2 Bft) 95,74 %
02.03.2023 00:52 0,3 C -1,1 C -4,4 C 80 % 1024,3 hPa 0,0 l/m 0 min 0 min 0 W/m 3,2 km/h (1 Bft) 95,35 %
02.03.2023 00:54 0,3 C -1,1 C -4,4 C 80 % 1024,3 hPa 0,0 l/m 0 min 0 min 0 W/m 3,2 km/h (1 Bft) 95,65 %
02.03.2023 00:56 0,3 C -1,1 C -4,4 C 80 % 1024,3 hPa 0,0 l/m 0 min 0 min 0 W/m 6,4 km/h (2 Bft) 95,83 %
02.03.2023 00:58 0,3 C -1,1 C -4,4 C 80 % 1024,3 hPa 0,0 l/m 0 min 0 min 0 W/m 3,2 km/h (1 Bft) 95,74 %
02.03.2023 01:00 0,3 C -1,1 C -4,4 C 80 % 1024,3 hPa 0,0 l/m 0 min 0 min 0 W/m 3,2 km/h (1 Bft) 95,74 %
02.03.2023 01:02 0,3 C -1,1 C -4,4 C 80 % 1024,3 hPa 0,0 l/m 0 min 0 min 0 W/m 3,2 km/h (1 Bft) 95,74 %
02.03.2023 01:04 0,3 C -1,1 C -4,4 C 80 % 1024,3 hPa 0,0 l/m 0 min 0 min 0 W/m 3,2 km/h (1 Bft) 95,74 %
02.03.2023 01:06 0,2 C -1,1 C -4,4 C 80 % 1024,3 hPa 0,0 l/m 0 min 0 min 0 W/m 3,2 km/h (1 Bft) 98,28 %
02.03.2023 01:08 0,2 C -1,1 C -4,4 C 80 % 1024,4 hPa 0,0 l/m 0 min 0 min 0 W/m 0,0 km/h (0 Bft) 97,14 %
02.03.2023 01:10 0,2 C -1,1 C -4,4 C 80 % 1024,3 hPa 0,0 l/m 0 min 0 min 0 W/m 3,2 km/h (1 Bft) 97,87 %
02.03.2023 01:12 0,2 C -1,1 C -4,4 C 80 % 1024,3 hPa 0,0 l/m 0 min 0 min 0 W/m 3,2 km/h (1 Bft) 98,00 %
02.03.2023 01:14 0,2 C -1,1 C -4,4 C 80 % 1024,3 hPa 0,0 l/m 0 min 0 min 0 W/m 3,2 km/h (1 Bft) 97,87 %
02.03.2023 01:16 0,2 C -1,1 C -4,4 C 80 % 1024,3 hPa 0,0 l/m 0 min 0 min 0 W/m 3,2 km/h (1 Bft) 97,87 %
02.03.2023 01:18 0,1 C -1,1 C -4,4 C 80 % 1024,2 hPa 0,0 l/m 0 min 0 min 0 W/m 3,2 km/h (1 Bft) 95,74 %
02.03.2023 01:20 0,1 C -1,1 C -4,4 C 80 % 1024,3 hPa 0,0 l/m 0 min 0 min 0 W/m 3,2 km/h (1 Bft) 97,83 %
02.03.2023 01:22 0,1 C -1,1 C -4,4 C 80 % 1024,3 hPa 0,0 l/m 0 min 0 min 0 W/m 3,2 km/h (1 Bft) 95,74 %
02.03.2023 01:24 0,1 C -1,1 C -4,4 C 80 % 1024,2 hPa 0,0 l/m 0 min 0 min 0 W/m 3,2 km/h (1 Bft) 95,74 %
02.03.2023 01:26 0,1 C -1,1 C -4,4 C 80 % 1024,2 hPa 0,0 l/m 0 min 0 min 0 W/m 3,2 km/h (1 Bft) 97,87 %
02.03.2023 01:28 0,1 C -1,1 C -4,4 C 80 % 1024,2 hPa 0,0 l/m 0 min 0 min 0 W/m 3,2 km/h (1 Bft) 97,87 %
02.03.2023 01:30 0,1 C -1,1 C -4,4 C 80 % 1024,2 hPa 0,0 l/m 0 min 0 min 0 W/m 6,4 km/h (2 Bft) 97,87 %
02.03.2023 01:32 0,1 C -1,1 C -4,4 C 80 % 1024,2 hPa 0,0 l/m 0 min 0 min 0 W/m 3,2 km/h (1 Bft) 97,87 %
02.03.2023 01:34 0,1 C -1,1 C -4,4 C 80 % 1024,2 hPa 0,0 l/m 0 min 0 min 0 W/m 3,2 km/h (1 Bft) 97,83 %
02.03.2023 01:36 0,1 C -1,1 C -4,4 C 80 % 1024,2 hPa 0,0 l/m 0 min 0 min 0 W/m 3,2 km/h (1 Bft) 95,74 %
02.03.2023 01:38 0,1 C -1,1 C -4,4 C 80 % 1024,2 hPa 0,0 l/m 0 min 0 min 0 W/m 6,4 km/h (2 Bft) 97,87 %
02.03.2023 01:40 0,1 C -1,1 C -4,4 C 80 % 1024,2 hPa 0,0 l/m 0 min 0 min 0 W/m 6,4 km/h (2 Bft) 98,11 %
02.03.2023 01:42 0,1 C -1,1 C -4,4 C 80 % 1024,2 hPa 0,0 l/m 0 min 0 min 0 W/m 3,2 km/h (1 Bft) 97,56 %
02.03.2023 01:44 0,1 C -1,1 C -4,4 C 80 % 1024,1 hPa 0,0 l/m 0 min 0 min 0 W/m 3,2 km/h (1 Bft) 95,74 %
02.03.2023 01:46 0,1 C -1,1 C -4,4 C 80 % 1024,1 hPa 0,0 l/m 0 min 0 min 0 W/m 3,2 km/h (1 Bft) 100,00 %
02.03.2023 01:48 0,1 C -1,1 C -4,4 C 80 % 1024,1 hPa 0,0 l/m 0 min 0 min 0 W/m 9,7 km/h (2 Bft) 100,00 %
02.03.2023 01:50 0,1 C -1,1 C -4,4 C 80 % 1024,1 hPa 0,0 l/m 0 min 0 min 0 W/m 3,2 km/h (1 Bft) 100,00 %
02.03.2023 01:52 0,1 C -1,1 C -4,4 C 80 % 1024,1 hPa 0,0 l/m 0 min 0 min 0 W/m 3,2 km/h (1 Bft) 100,00 %
02.03.2023 01:54 0,0 C -1,1 C -4,4 C 80 % 1024,2 hPa 0,0 l/m 0 min 0 min 0 W/m 3,2 km/h (1 Bft) 100,00 %
02.03.2023 01:56 0,0 C -1,1 C -4,4 C 80 % 1024,1 hPa 0,0 l/m 0 min 0 min 0 W/m 0,0 km/h (0 Bft) 100,00 %
02.03.2023 01:58 0,0 C -1,1 C -4,4 C 80 % 1024,1 hPa 0,0 l/m 0 min 0 min 0 W/m 3,2 km/h (1 Bft) 100,00 %
02.03.2023 02:00 -0,1 C -1,1 C -4,4 C 80 % 1024,1 hPa 0,0 l/m 0 min 0 min 0 W/m 3,2 km/h (1 Bft) 100,00 %
02.03.2023 02:02 -0,1 C -1,1 C -4,4 C 80 % 1024,1 hPa 0,0 l/m 0 min 0 min 0 W/m 3,2 km/h (1 Bft) 100,00 %
02.03.2023 02:04 -0,1 C -1,1 C -4,4 C 80 % 1024,1 hPa 0,0 l/m 0 min 0 min 0 W/m 3,2 km/h (1 Bft) 100,00 %
02.03.2023 02:06 -0,1 C -1,1 C -4,4 C 80 % 1024,1 hPa 0,0 l/m 0 min 0 min 0 W/m 3,2 km/h (1 Bft) 100,00 %
02.03.2023 02:08 -0,1 C -1,1 C -4,4 C 80 % 1024,0 hPa 0,0 l/m 0 min 0 min 0 W/m 0,0 km/h (0 Bft) 94,29 %
02.03.2023 02:10 -0,1 C -1,1 C -4,4 C 80 % 1024,0 hPa 0,0 l/m 0 min 0 min 0 W/m 0,0 km/h (0 Bft) 97,96 %
02.03.2023 02:17 -0,2 C -1,1 C -4,4 C 80 % 1023,9 hPa 0,0 l/m 0 min 0 min 0 W/m 6,4 km/h (2 Bft) 100,00 %
02.03.2023 02:18 -0,2 C -1,1 C -4,4 C 80 % 1023,9 hPa 0,0 l/m 0 min 0 min 0 W/m 6,4 km/h (2 Bft) 91,67 %
02.03.2023 02:23 -0,2 C -1,7 C -5,0 C 80 % 1023,9 hPa 0,0 l/m 0 min 0 min 0 W/m 0,0 km/h (0 Bft) 52,63 %
02.03.2023 02:24 -0,2 C -1,7 C -5,0 C 80 % 1023,9 hPa 0,0 l/m 0 min 0 min 0 W/m 0,0 km/h (0 Bft) 70,00 %
02.03.2023 02:26 -0,2 C -1,7 C -5,0 C 80 % 1023,9 hPa 0,0 l/m 0 min 0 min 0 W/m 0,0 km/h (0 Bft) 97,87 %
02.03.2023 02:28 -0,3 C -1,7 C -5,0 C 80 % 1023,9 hPa 0,0 l/m 0 min 0 min 0 W/m 0,0 km/h (0 Bft) 100,00 %
02.03.2023 02:30 -0,3 C -1,7 C -5,0 C 80 % 1023,9 hPa 0,0 l/m 0 min 0 min 0 W/m 0,0 km/h (0 Bft) 100,00 %
02.03.2023 02:32 -0,3 C -1,7 C -5,0 C 80 % 1023,9 hPa 0,0 l/m 0 min 0 min 0 W/m 0,0 km/h (0 Bft) 97,87 %
02.03.2023 02:34 -0,3 C -1,7 C -5,0 C 80 % 1023,8 hPa 0,0 l/m 0 min 0 min 0 W/m 0,0 km/h (0 Bft) 97,87 %
02.03.2023 02:36 -0,3 C -1,7 C -5,0 C 80 % 1023,8 hPa 0,0 l/m 0 min 0 min 0 W/m 0,0 km/h (0 Bft) 97,83 %
02.03.2023 02:38 -0,4 C -1,7 C -5,0 C 80 % 1023,8 hPa 0,0 l/m 0 min 0 min 0 W/m 0,0 km/h (0 Bft) 95,74 %
02.03.2023 02:40 -0,4 C -1,7 C -5,0 C 80 % 1023,8 hPa 0,0 l/m 0 min 0 min 0 W/m 0,0 km/h (0 Bft) 97,87 %
02.03.2023 02:42 -0,4 C -1,7 C -5,6 C 80 % 1023,8 hPa 0,0 l/m 0 min 0 min 0 W/m 0,0 km/h (0 Bft) 95,74 %
02.03.2023 02:44 -0,4 C -1,7 C -5,6 C 80 % 1023,7 hPa 0,0 l/m 0 min 0 min 0 W/m 3,2 km/h (1 Bft) 97,87 %
02.03.2023 02:46 -0,5 C -2,2 C -5,6 C 80 % 1023,7 hPa 0,0 l/m 0 min 0 min 0 W/m 3,2 km/h (1 Bft) 97,87 %
02.03.2023 02:48 -0,5 C -2,2 C -5,6 C 80 % 1023,7 hPa 0,0 l/m 0 min 0 min 0 W/m 0,0 km/h (0 Bft) 97,87 %
02.03.2023 02:50 -0,6 C -2,2 C -5,6 C 80 % 1023,7 hPa 0,0 l/m 0 min 0 min 0 W/m 0,0 km/h (0 Bft) 95,65 %
02.03.2023 02:52 -0,6 C -2,2 C -5,6 C 80 % 1023,7 hPa 0,0 l/m 0 min 0 min 0 W/m 0,0 km/h (0 Bft) 97,87 %
02.03.2023 02:54 -0,6 C -2,2 C -5,6 C 80 % 1023,7 hPa 0,0 l/m 0 min 0 min 0 W/m 3,2 km/h (1 Bft) 95,74 %
02.03.2023 02:56 -0,7 C -2,2 C -5,6 C 80 % 1023,7 hPa 0,0 l/m 0 min 0 min 0 W/m 3,2 km/h (1 Bft) 93,62 %
02.03.2023 02:58 -0,7 C -2,2 C -5,6 C 80 % 1023,7 hPa 0,0 l/m 0 min 0 min 0 W/m 3,2 km/h (1 Bft) 95,74 %
02.03.2023 03:00 -0,7 C -2,2 C -5,6 C 80 % 1023,7 hPa 0,0 l/m 0 min 0 min 0 W/m 3,2 km/h (1 Bft) 97,87 %
02.03.2023 03:02 -0,7 C -2,2 C -5,6 C 80 % 1023,6 hPa 0,0 l/m 0 min 0 min 0 W/m 0,0 km/h (0 Bft) 36,36 %
02.03.2023 03:04 -0,8 C -2,2 C -5,6 C 80 % 1023,7 hPa 0,0 l/m 0 min 0 min 0 W/m 3,2 km/h (1 Bft) 97,87 %
02.03.2023 03:06 -0,8 C -1,7 C -5,6 C 80 % 1023,6 hPa 0,0 l/m 0 min 0 min 0 W/m 3,2 km/h (1 Bft) 93,62 %
02.03.2023 03:08 -0,8 C -1,7 C -5,6 C 80 % 1023,6 hPa 0,0 l/m 0 min 0 min 0 W/m 3,2 km/h (1 Bft) 97,87 %
02.03.2023 03:10 -0,8 C -1,7 C -5,6 C 81 % 1023,6 hPa 0,0 l/m 0 min 0 min 0 W/m 3,2 km/h (1 Bft) 97,87 %
02.03.2023 03:12 -0,8 C -1,7 C -5,6 C 81 % 1023,6 hPa 0,0 l/m 0 min 0 min 0 W/m 6,4 km/h (2 Bft) 94,34 %
02.03.2023 03:14 -0,8 C -1,7 C -5,0 C 81 % 1023,6 hPa 0,0 l/m 0 min 0 min 0 W/m 3,2 km/h (1 Bft) 97,87 %
02.03.2023 03:16 -0,9 C -1,7 C -5,0 C 81 % 1023,6 hPa 0,0 l/m 0 min 0 min 0 W/m 6,4 km/h (2 Bft) 97,92 %
02.03.2023 03:18 -0,9 C -1,7 C -5,0 C 81 % 1023,6 hPa 0,0 l/m 0 min 0 min 0 W/m 3,2 km/h (1 Bft) 95,74 %
02.03.2023 03:20 -0,9 C -1,7 C -5,0 C 81 % 1023,5 hPa 0,0 l/m 0 min 0 min 0 W/m 0,0 km/h (0 Bft) 97,87 %
02.03.2023 03:22 -0,9 C -1,7 C -5,0 C 81 % 1023,5 hPa 0,0 l/m 0 min 0 min 0 W/m 6,4 km/h (2 Bft) 95,65 %
02.03.2023 03:24 -0,9 C -1,7 C -5,6 C 81 % 1023,6 hPa 0,0 l/m 0 min 0 min 0 W/m 0,0 km/h (0 Bft) 95,74 %
02.03.2023 03:26 -0,9 C -1,7 C -5,6 C 81 % 1023,6 hPa 0,0 l/m 0 min 0 min 0 W/m 0,0 km/h (0 Bft) 97,92 %
02.03.2023 03:28 -0,9 C -1,7 C -5,6 C 81 % 1023,6 hPa 0,0 l/m 0 min 0 min 0 W/m 0,0 km/h (0 Bft) 97,87 %
02.03.2023 03:30 -0,9 C -2,2 C -5,6 C 81 % 1023,6 hPa 0,0 l/m 0 min 0 min 0 W/m 0,0 km/h (0 Bft) 95,74 %
02.03.2023 03:32 -0,9 C -2,2 C -5,6 C 81 % 1023,6 hPa 0,0 l/m 0 min 0 min 0 W/m 0,0 km/h (0 Bft) 97,87 %
02.03.2023 03:34 -1,0 C -1,7 C -5,6 C 82 % 1023,5 hPa 0,0 l/m 0 min 0 min 0 W/m 3,2 km/h (1 Bft) 97,83 %
02.03.2023 03:36 -1,0 C -1,7 C -5,6 C 82 % 1023,6 hPa 0,0 l/m 0 min 0 min 0 W/m 3,2 km/h (1 Bft) 97,44 %
02.03.2023 03:38 -1,0 C -1,7 C -5,6 C 82 % 1023,6 hPa 0,0 l/m 0 min 0 min 0 W/m 0,0 km/h (0 Bft) 97,83 %
02.03.2023 03:40 -1,0 C -1,7 C -5,6 C 82 % 1023,6 hPa 0,0 l/m 0 min 0 min 0 W/m 3,2 km/h (1 Bft) 97,87 %
02.03.2023 03:42 -1,0 C -1,7 C -5,6 C 82 % 1023,6 hPa 0,0 l/m 0 min 0 min 0 W/m 3,2 km/h (1 Bft) 97,87 %
02.03.2023 03:44 -1,0 C -2,2 C -5,6 C 82 % 1023,5 hPa 0,0 l/m 0 min 0 min 0 W/m 0,0 km/h (0 Bft) 91,49 %
02.03.2023 03:46 -1,1 C -1,7 C -5,6 C 82 % 1023,5 hPa 0,0 l/m 0 min 0 min 0 W/m 0,0 km/h (0 Bft) 95,74 %
02.03.2023 03:48 -1,1 C -1,7 C -5,6 C 82 % 1023,5 hPa 0,0 l/m 0 min 0 min 0 W/m 3,2 km/h (1 Bft) 97,87 %
02.03.2023 03:50 -1,1 C -2,2 C -5,6 C 82 % 1023,5 hPa 0,0 l/m 0 min 0 min 0 W/m 0,0 km/h (0 Bft) 97,87 %
02.03.2023 03:52 -1,1 C -2,2 C -5,6 C 82 % 1023,5 hPa 0,0 l/m 0 min 0 min 0 W/m 3,2 km/h (1 Bft) 95,74 %
02.03.2023 03:54 -1,1 C -2,2 C -5,6 C 82 % 1023,5 hPa 0,0 l/m 0 min 0 min 0 W/m 3,2 km/h (1 Bft) 97,87 %
02.03.2023 03:56 -1,1 C -2,2 C -5,6 C 82 % 1023,5 hPa 0,0 l/m 0 min 0 min 0 W/m 0,0 km/h (0 Bft) 97,83 %
02.03.2023 03:58 -1,1 C -2,2 C -5,6 C 82 % 1023,5 hPa 0,0 l/m 0 min 0 min 0 W/m 3,2 km/h (1 Bft) 97,92 %
02.03.2023 04:00 -1,1 C -2,2 C -5,6 C 82 % 1023,4 hPa 0,0 l/m 0 min 0 min 0 W/m 0,0 km/h (0 Bft) 97,87 %
02.03.2023 04:02 -1,1 C -2,2 C -5,6 C 82 % 1023,5 hPa 0,0 l/m 0 min 0 min 0 W/m 0,0 km/h (0 Bft) 95,74 %
02.03.2023 04:04 -1,2 C -2,2 C -5,6 C 82 % 1023,4 hPa 0,0 l/m 0 min 0 min 0 W/m 3,2 km/h (1 Bft) 95,74 %
02.03.2023 04:06 -1,2 C -2,2 C -5,6 C 82 % 1023,5 hPa 0,0 l/m 0 min 0 min 0 W/m 3,2 km/h (1 Bft) 98,31 %
02.03.2023 04:08 -1,2 C -2,2 C -5,6 C 82 % 1023,5 hPa 0,0 l/m 0 min 0 min 0 W/m 3,2 km/h (1 Bft) 92,11 %
02.03.2023 04:10 -1,2 C -1,7 C -5,6 C 82 % 1023,4 hPa 0,0 l/m 0 min 0 min 0 W/m 6,4 km/h (2 Bft) 97,87 %
02.03.2023 04:12 -1,2 C -1,7 C -5,6 C 82 % 1023,5 hPa 0,0 l/m 0 min 0 min 0 W/m 3,2 km/h (1 Bft) 97,87 %
02.03.2023 04:14 -1,2 C -1,7 C -5,0 C 82 % 1023,4 hPa 0,0 l/m 0 min 0 min 0 W/m 12,9 km/h (3 Bft) 97,87 %
02.03.2023 04:16 -1,1 C -1,7 C -5,0 C 83 % 1023,5 hPa 0,0 l/m 0 min 0 min 0 W/m 9,7 km/h (2 Bft) 95,74 %
02.03.2023 04:18 -1,1 C -1,7 C -5,0 C 83 % 1023,4 hPa 0,0 l/m 0 min 0 min 0 W/m 6,4 km/h (2 Bft) 95,74 %
02.03.2023 04:20 -1,0 C -1,7 C -5,0 C 83 % 1023,4 hPa 0,0 l/m 0 min 0 min 0 W/m 3,2 km/h (1 Bft) 95,65 %
02.03.2023 04:22 -1,0 C -1,7 C -5,0 C 83 % 1023,4 hPa 0,0 l/m 0 min 0 min 0 W/m 6,4 km/h (2 Bft) 93,62 %
02.03.2023 04:24 -0,9 C -1,7 C -5,0 C 83 % 1023,4 hPa 0,0 l/m 0 min 0 min 0 W/m 3,2 km/h (1 Bft) 97,87 %
02.03.2023 04:26 -0,9 C -1,7 C -5,0 C 83 % 1023,3 hPa 0,0 l/m 0 min 0 min 0 W/m 3,2 km/h (1 Bft) 97,87 %
02.03.2023 04:28 -0,9 C -1,7 C -5,0 C 83 % 1023,4 hPa 0,0 l/m 0 min 0 min 0 W/m 6,4 km/h (2 Bft) 95,74 %
02.03.2023 04:30 -0,9 C -1,7 C -5,0 C 83 % 1023,3 hPa 0,0 l/m 0 min 0 min 0 W/m 3,2 km/h (1 Bft) 97,14 %
02.03.2023 04:32 -0,9 C -1,7 C -5,0 C 83 % 1023,3 hPa 0,0 l/m 0 min 0 min 0 W/m 3,2 km/h (1 Bft) 93,62 %
02.03.2023 04:34 -0,9 C -1,7 C -5,0 C 83 % 1023,3 hPa 0,0 l/m 0 min 0 min 0 W/m 9,7 km/h (2 Bft) 95,74 %
02.03.2023 04:36 -0,9 C -1,7 C -5,0 C 83 % 1023,3 hPa 0,0 l/m 0 min 0 min 0 W/m 9,7 km/h (2 Bft) 92,45 %
02.03.2023 04:38 -0,9 C -1,7 C -5,0 C 83 % 1023,3 hPa 0,0 l/m 0 min 0 min 0 W/m 6,4 km/h (2 Bft) 95,74 %
02.03.2023 04:40 -0,9 C -1,7 C -5,0 C 83 % 1023,3 hPa 0,0 l/m 0 min 0 min 0 W/m 6,4 km/h (2 Bft) 95,74 %
02.03.2023 04:42 -0,9 C -1,7 C -5,0 C 83 % 1023,4 hPa 0,0 l/m 0 min 0 min 0 W/m 0,0 km/h (0 Bft) 95,74 %
02.03.2023 04:44 -0,9 C -1,7 C -5,0 C 82 % 1023,3 hPa 0,0 l/m 0 min 0 min 0 W/m 3,2 km/h (1 Bft) 95,92 %
02.03.2023 04:46 -0,9 C -1,7 C -5,0 C 82 % 1023,3 hPa 0,0 l/m 0 min 0 min 0 W/m 6,4 km/h (2 Bft) 97,87 %
02.03.2023 04:48 -0,9 C -1,7 C -5,0 C 82 % 1023,3 hPa 0,0 l/m 0 min 0 min 0 W/m 3,2 km/h (1 Bft) 97,87 %
02.03.2023 04:50 -0,9 C -1,7 C -5,0 C 83 % 1023,3 hPa 0,0 l/m 0 min 0 min 0 W/m 9,7 km/h (2 Bft) 97,87 %
02.03.2023 04:52 -0,9 C -1,7 C -5,0 C 83 % 1023,3 hPa 0,0 l/m 0 min 0 min 0 W/m 9,7 km/h (2 Bft) 97,87 %
02.03.2023 04:54 -0,9 C -1,7 C -5,0 C 83 % 1023,3 hPa 0,0 l/m 0 min 0 min 0 W/m 6,4 km/h (2 Bft) 97,87 %
02.03.2023 04:56 -0,9 C -1,7 C -5,0 C 83 % 1023,3 hPa 0,0 l/m 0 min 0 min 0 W/m 3,2 km/h (1 Bft) 95,65 %
02.03.2023 04:58 -0,9 C -1,7 C -5,0 C 83 % 1023,3 hPa 0,0 l/m 0 min 0 min 0 W/m 3,2 km/h (1 Bft) 97,87 %
02.03.2023 05:00 -0,9 C -1,7 C -5,0 C 82 % 1023,3 hPa 0,0 l/m 0 min 0 min 0 W/m 6,4 km/h (2 Bft) 100,00 %
02.03.2023 05:02 -0,9 C -1,7 C -5,0 C 82 % 1023,3 hPa 0,0 l/m 0 min 0 min 0 W/m 3,2 km/h (1 Bft) 100,00 %
02.03.2023 05:04 -0,9 C -1,7 C -5,0 C 82 % 1023,3 hPa 0,0 l/m 0 min 0 min 0 W/m 6,4 km/h (2 Bft) 100,00 %
02.03.2023 05:06 -0,8 C -1,7 C -5,0 C 82 % 1023,4 hPa 0,0 l/m 0 min 0 min 0 W/m 6,4 km/h (2 Bft) 95,92 %
02.03.2023 05:08 -0,8 C -1,7 C -5,0 C 82 % 1023,4 hPa 0,0 l/m 0 min 0 min 0 W/m 6,4 km/h (2 Bft) 95,74 %
02.03.2023 05:10 -0,8 C -1,7 C -5,0 C 82 % 1023,4 hPa 0,0 l/m 0 min 0 min 0 W/m 6,4 km/h (2 Bft) 100,00 %
02.03.2023 05:12 -0,8 C -1,7 C -5,0 C 82 % 1023,4 hPa 0,0 l/m 0 min 0 min 0 W/m 6,4 km/h (2 Bft) 95,74 %
02.03.2023 05:14 -0,8 C -1,7 C -5,0 C 82 % 1023,4 hPa 0,0 l/m 0 min 0 min 0 W/m 6,4 km/h (2 Bft) 100,00 %
02.03.2023 05:16 -0,8 C -1,7 C -5,0 C 82 % 1023,4 hPa 0,0 l/m 0 min 0 min 0 W/m 6,4 km/h (2 Bft) 100,00 %
02.03.2023 05:18 -0,8 C -1,7 C -5,0 C 82 % 1023,4 hPa 0,0 l/m 0 min 0 min 0 W/m 12,9 km/h (3 Bft) 100,00 %
02.03.2023 05:20 -0,8 C -1,7 C -5,0 C 82 % 1023,4 hPa 0,0 l/m 0 min 0 min 0 W/m 6,4 km/h (2 Bft) 100,00 %
02.03.2023 05:22 -0,8 C -1,7 C -5,0 C 82 % 1023,4 hPa 0,0 l/m 0 min 0 min 0 W/m 6,4 km/h (2 Bft) 97,87 %
02.03.2023 05:24 -0,8 C -1,1 C -5,0 C 81 % 1023,4 hPa 0,0 l/m 0 min 0 min 0 W/m 12,9 km/h (3 Bft) 97,87 %
02.03.2023 05:26 -0,8 C -1,1 C -5,0 C 81 % 1023,4 hPa 0,0 l/m 0 min 0 min 0 W/m 9,7 km/h (2 Bft) 100,00 %
02.03.2023 05:28 -0,7 C -1,1 C -5,0 C 81 % 1023,4 hPa 0,0 l/m 0 min 0 min 0 W/m 9,7 km/h (2 Bft) 100,00 %
02.03.2023 05:30 -0,7 C -1,7 C -5,0 C 81 % 1023,4 hPa 0,0 l/m 0 min 0 min 0 W/m 3,2 km/h (1 Bft) 100,00 %
02.03.2023 05:32 -0,7 C -1,7 C -5,0 C 81 % 1023,4 hPa 0,0 l/m 0 min 0 min 0 W/m 3,2 km/h (1 Bft) 97,87 %
02.03.2023 05:34 -0,7 C -1,7 C -5,0 C 81 % 1023,4 hPa 0,0 l/m 0 min 0 min 0 W/m 6,4 km/h (2 Bft) 97,87 %
02.03.2023 05:36 -0,7 C -1,7 C -5,0 C 81 % 1023,4 hPa 0,0 l/m 0 min 0 min 0 W/m 6,4 km/h (2 Bft) 100,00 %
02.03.2023 05:38 -0,7 C -1,7 C -5,0 C 81 % 1023,4 hPa 0,0 l/m 0 min 0 min 0 W/m 6,4 km/h (2 Bft) 100,00 %
02.03.2023 05:40 -0,7 C -1,7 C -5,0 C 81 % 1023,4 hPa 0,0 l/m 0 min 0 min 0 W/m 3,2 km/h (1 Bft) 98,04 %
02.03.2023 05:42 -0,7 C -1,7 C -5,0 C 81 % 1023,4 hPa 0,0 l/m 0 min 0 min 0 W/m 6,4 km/h (2 Bft) 100,00 %
02.03.2023 05:44 -0,7 C -1,7 C -5,0 C 81 % 1023,4 hPa 0,0 l/m 0 min 0 min 0 W/m 3,2 km/h (1 Bft) 100,00 %
02.03.2023 05:46 -0,8 C -1,7 C -5,0 C 81 % 1023,3 hPa 0,0 l/m 0 min 0 min 0 W/m 3,2 km/h (1 Bft) 97,87 %
02.03.2023 05:48 -0,8 C -1,7 C -5,0 C 81 % 1023,3 hPa 0,0 l/m 0 min 0 min 0 W/m 0,0 km/h (0 Bft) 97,83 %
02.03.2023 05:50 -0,8 C -1,7 C -5,0 C 80 % 1023,3 hPa 0,0 l/m 0 min 0 min 0 W/m 6,4 km/h (2 Bft) 100,00 %
02.03.2023 05:52 -0,8 C -1,7 C -5,6 C 80 % 1023,3 hPa 0,0 l/m 0 min 0 min 0 W/m 6,4 km/h (2 Bft) 95,74 %
02.03.2023 05:54 -0,8 C -1,7 C -5,0 C 80 % 1023,3 hPa 0,0 l/m 0 min 0 min 0 W/m 3,2 km/h (1 Bft) 97,87 %
02.03.2023 05:56 -0,8 C -1,7 C -5,0 C 81 % 1023,3 hPa 0,0 l/m 0 min 0 min 0 W/m 3,2 km/h (1 Bft) 100,00 %
02.03.2023 05:58 -0,8 C -1,7 C -5,0 C 81 % 1023,2 hPa 0,0 l/m 0 min 0 min 0 W/m 6,4 km/h (2 Bft) 100,00 %
02.03.2023 06:00 -0,8 C -1,7 C -5,0 C 81 % 1023,2 hPa 0,0 l/m 0 min 0 min 0 W/m 9,7 km/h (2 Bft) 100,00 %
02.03.2023 06:02 -0,8 C -1,7 C -5,0 C 81 % 1023,2 hPa 0,0 l/m 0 min 0 min 0 W/m 6,4 km/h (2 Bft) 100,00 %
02.03.2023 06:04 -0,8 C -1,7 C -5,0 C 81 % 1023,2 hPa 0,0 l/m 0 min 0 min 0 W/m 6,4 km/h (2 Bft) 95,74 %
02.03.2023 06:08 -0,8 C -1,7 C -5,0 C 81 % 1023,2 hPa 0,0 l/m 0 min 0 min 0 W/m 9,7 km/h (2 Bft) 98,94 %
02.03.2023 06:10 -0,7 C -1,7 C -5,0 C 81 % 1023,2 hPa 0,0 l/m 0 min 0 min 0 W/m 6,4 km/h (2 Bft) 100,00 %
02.03.2023 06:12 -0,7 C -1,7 C -5,0 C 81 % 1023,1 hPa 0,0 l/m 0 min 0 min 0 W/m 9,7 km/h (2 Bft) 97,30 %
02.03.2023 06:14 -0,7 C -1,7 C -5,0 C 81 % 1023,2 hPa 0,0 l/m 0 min 0 min 0 W/m 9,7 km/h (2 Bft) 93,62 %
02.03.2023 06:16 -0,7 C -1,7 C -5,0 C 81 % 1023,2 hPa 0,0 l/m 0 min 0 min 0 W/m 6,4 km/h (2 Bft) 95,74 %
02.03.2023 06:18 -0,7 C -1,7 C -5,0 C 81 % 1023,2 hPa 0,0 l/m 0 min 0 min 0 W/m 9,7 km/h (2 Bft) 93,62 %
02.03.2023 06:20 -0,7 C -1,7 C -5,0 C 81 % 1023,2 hPa 0,0 l/m 0 min 0 min 0 W/m 6,4 km/h (2 Bft) 93,62 %
02.03.2023 06:22 -0,7 C -1,7 C -5,0 C 81 % 1023,2 hPa 0,0 l/m 0 min 0 min 0 W/m 3,2 km/h (1 Bft) 95,92 %
02.03.2023 06:24 -0,7 C -1,7 C -5,0 C 81 % 1023,2 hPa 0,0 l/m 0 min 0 min 0 W/m 6,4 km/h (2 Bft) 95,74 %
02.03.2023 06:26 -0,7 C -1,7 C -5,0 C 81 % 1023,2 hPa 0,0 l/m 0 min 0 min 0 W/m 6,4 km/h (2 Bft) 95,74 %
02.03.2023 06:28 -0,7 C -1,7 C -5,0 C 80 % 1023,1 hPa 0,0 l/m 0 min 0 min 0 W/m 6,4 km/h (2 Bft) 91,49 %
02.03.2023 06:30 -0,7 C -1,7 C -5,0 C 80 % 1023,1 hPa 0,0 l/m 0 min 0 min 0 W/m 6,4 km/h (2 Bft) 95,74 %
02.03.2023 06:32 -0,7 C -1,7 C -5,0 C 80 % 1023,1 hPa 0,0 l/m 0 min 0 min 0 W/m 9,7 km/h (2 Bft) 95,74 %
02.03.2023 06:34 -0,7 C -1,7 C -5,0 C 80 % 1023,1 hPa 0,0 l/m 0 min 0 min 0 W/m 12,9 km/h (3 Bft) 95,65 %
02.03.2023 06:36 -0,7 C -1,7 C -5,0 C 80 % 1023,2 hPa 0,0 l/m 0 min 0 min 0 W/m 6,4 km/h (2 Bft) 97,87 %
02.03.2023 06:38 -0,7 C -1,7 C -5,0 C 80 % 1023,2 hPa 0,0 l/m 0 min 0 min 0 W/m 3,2 km/h (1 Bft) 95,74 %
02.03.2023 06:40 -0,7 C -1,7 C -5,0 C 80 % 1023,1 hPa 0,0 l/m 0 min 0 min 0 W/m 6,4 km/h (2 Bft) 93,62 %
02.03.2023 06:42 -0,7 C -1,7 C -5,0 C 80 % 1023,2 hPa 0,0 l/m 0 min 0 min 0 W/m 3,2 km/h (1 Bft) 95,74 %
02.03.2023 06:44 -0,7 C -1,7 C -5,0 C 80 % 1023,2 hPa 0,0 l/m 0 min 0 min 0 W/m 6,4 km/h (2 Bft) 95,74 %
02.03.2023 06:46 -0,7 C -1,7 C -5,0 C 80 % 1023,2 hPa 0,0 l/m 0 min 0 min 0 W/m 6,4 km/h (2 Bft) 93,62 %
02.03.2023 06:48 -0,7 C -1,7 C -5,0 C 80 % 1023,2 hPa 0,0 l/m 0 min 0 min 0 W/m 6,4 km/h (2 Bft) 37,50 %
02.03.2023 06:50 -0,7 C -1,7 C -5,0 C 80 % 1023,1 hPa 0,0 l/m 0 min 0 min 0 W/m 6,4 km/h (2 Bft) 97,73 %
02.03.2023 06:52 -0,7 C -1,7 C -5,0 C 80 % 1023,2 hPa 0,0 l/m 0 min 0 min 0 W/m 3,2 km/h (1 Bft) 95,74 %
02.03.2023 06:54 -0,7 C -1,7 C -5,0 C 80 % 1023,2 hPa 0,0 l/m 0 min 0 min 0 W/m 3,2 km/h (1 Bft) 95,74 %
02.03.2023 06:56 -0,7 C -1,7 C -5,0 C 80 % 1023,2 hPa 0,0 l/m 0 min 0 min 0 W/m 3,2 km/h (1 Bft) 97,87 %
02.03.2023 06:58 -0,7 C -1,7 C -5,0 C 80 % 1023,2 hPa 0,0 l/m 0 min 0 min 0 W/m 3,2 km/h (1 Bft) 97,87 %
02.03.2023 07:00 -0,7 C -1,7 C -5,0 C 80 % 1023,2 hPa 0,0 l/m 0 min 0 min 0 W/m 6,4 km/h (2 Bft) 97,87 %
02.03.2023 07:02 -0,7 C -1,7 C -5,0 C 80 % 1023,2 hPa 0,0 l/m 0 min 0 min 0 W/m 6,4 km/h (2 Bft) 97,83 %
02.03.2023 07:04 -0,7 C -1,7 C -5,0 C 80 % 1023,2 hPa 0,0 l/m 0 min 0 min 0 W/m 12,9 km/h (3 Bft) 97,87 %
02.03.2023 07:06 -0,7 C -1,7 C -5,0 C 80 % 1023,2 hPa 0,0 l/m 0 min 0 min 0 W/m 6,4 km/h (2 Bft) 97,87 %
02.03.2023 07:08 -0,7 C -1,7 C -5,0 C 80 % 1023,2 hPa 0,0 l/m 0 min 0 min 0 W/m 3,2 km/h (1 Bft) 97,87 %
02.03.2023 07:10 -0,7 C -1,7 C -5,0 C 80 % 1023,2 hPa 0,0 l/m 0 min 0 min 0 W/m 6,4 km/h (2 Bft) 97,87 %
02.03.2023 07:12 -0,7 C -1,7 C -5,0 C 80 % 1023,2 hPa 0,0 l/m 0 min 0 min 0 W/m 6,4 km/h (2 Bft) 95,74 %
02.03.2023 07:14 -0,7 C -1,7 C -5,0 C 80 % 1023,2 hPa 0,0 l/m 0 min 0 min 0 W/m 3,2 km/h (1 Bft) 97,87 %
02.03.2023 07:16 -0,7 C -1,7 C -5,0 C 80 % 1023,2 hPa 0,0 l/m 0 min 0 min 0 W/m 6,4 km/h (2 Bft) 97,83 %
02.03.2023 07:18 -0,7 C -1,7 C -5,0 C 80 % 1023,2 hPa 0,0 l/m 0 min 0 min 2 W/m 6,4 km/h (2 Bft) 97,87 %
02.03.2023 07:20 -0,7 C -1,7 C -5,0 C 80 % 1023,3 hPa 0,0 l/m 0 min 0 min 5 W/m 9,7 km/h (2 Bft) 97,87 %
02.03.2023 07:22 -0,7 C -1,7 C -5,0 C 80 % 1023,2 hPa 0,0 l/m 0 min 0 min 5 W/m 6,4 km/h (2 Bft) 95,74 %
02.03.2023 07:24 -0,7 C -1,7 C -5,0 C 80 % 1023,2 hPa 0,0 l/m 0 min 0 min 7 W/m 6,4 km/h (2 Bft) 100,00 %
02.03.2023 07:26 -0,7 C -1,7 C -5,0 C 80 % 1023,3 hPa 0,0 l/m 0 min 0 min 7 W/m 9,7 km/h (2 Bft) 59,57 %
02.03.2023 07:28 -0,7 C -1,7 C -5,0 C 80 % 1023,2 hPa 0,0 l/m 0 min 0 min 8 W/m 6,4 km/h (2 Bft) 86,67 %
02.03.2023 07:30 -0,7 C -1,7 C -5,0 C 80 % 1023,2 hPa 0,0 l/m 0 min 0 min 9 W/m 6,4 km/h (2 Bft) 95,65 %
02.03.2023 07:32 -0,7 C -1,7 C -5,0 C 80 % 1023,3 hPa 0,0 l/m 0 min 0 min 10 W/m 6,4 km/h (2 Bft) 97,87 %
02.03.2023 07:34 -0,7 C -1,7 C -5,0 C 80 % 1023,2 hPa 0,0 l/m 0 min 0 min 11 W/m 6,4 km/h (2 Bft) 95,74 %
02.03.2023 07:36 -0,7 C -1,7 C -5,0 C 80 % 1023,3 hPa 0,0 l/m 0 min 0 min 11 W/m 3,2 km/h (1 Bft) 93,62 %
02.03.2023 07:38 -0,7 C -1,7 C -5,0 C 80 % 1023,3 hPa 0,0 l/m 0 min 0 min 12 W/m 6,4 km/h (2 Bft) 100,00 %
02.03.2023 07:40 -0,6 C -1,7 C -5,0 C 80 % 1023,3 hPa 0,0 l/m 0 min 0 min 12 W/m 6,4 km/h (2 Bft) 93,62 %
02.03.2023 07:42 -0,6 C -1,7 C -5,0 C 80 % 1023,3 hPa 0,0 l/m 0 min 0 min 14 W/m 3,2 km/h (1 Bft) 100,00 %
02.03.2023 07:44 -0,6 C -1,7 C -5,0 C 80 % 1023,3 hPa 0,0 l/m 0 min 0 min 14 W/m 6,4 km/h (2 Bft) 100,00 %
02.03.2023 07:46 -0,6 C -1,7 C -5,0 C 80 % 1023,3 hPa 0,0 l/m 0 min 0 min 15 W/m 6,4 km/h (2 Bft) 95,74 %
02.03.2023 07:48 -0,6 C -1,7 C -5,0 C 80 % 1023,3 hPa 0,0 l/m 0 min 0 min 16 W/m 6,4 km/h (2 Bft) 97,87 %
02.03.2023 07:50 -0,6 C -1,7 C -5,0 C 80 % 1023,3 hPa 0,0 l/m 0 min 0 min 16 W/m 6,4 km/h (2 Bft) 100,00 %
02.03.2023 07:52 -0,6 C -1,7 C -5,0 C 80 % 1023,4 hPa 0,0 l/m 0 min 0 min 18 W/m 3,2 km/h (1 Bft) 97,87 %
02.03.2023 07:54 -0,6 C -1,7 C -5,0 C 80 % 1023,3 hPa 0,0 l/m 0 min 0 min 18 W/m 3,2 km/h (1 Bft) 93,62 %
02.03.2023 07:56 -0,6 C -1,7 C -5,0 C 80 % 1023,4 hPa 0,0 l/m 0 min 0 min 19 W/m 6,4 km/h (2 Bft) 97,83 %
02.03.2023 07:58 -0,6 C -1,7 C -5,0 C 80 % 1023,3 hPa 0,0 l/m 0 min 0 min 19 W/m 6,4 km/h (2 Bft) 95,74 %
02.03.2023 08:00 -0,6 C -1,7 C -5,0 C 80 % 1023,4 hPa 0,0 l/m 0 min 0 min 20 W/m 6,4 km/h (2 Bft) 93,62 %
02.03.2023 08:02 -0,6 C -1,1 C -5,0 C 80 % 1023,3 hPa 0,0 l/m 0 min 0 min 21 W/m 6,4 km/h (2 Bft) 100,00 %
02.03.2023 08:04 -0,6 C -1,1 C -5,0 C 81 % 1023,4 hPa 0,0 l/m 0 min 0 min 21 W/m 6,4 km/h (2 Bft) 95,74 %
02.03.2023 08:06 -0,6 C -1,1 C -5,0 C 81 % 1023,4 hPa 0,0 l/m 0 min 0 min 23 W/m 6,4 km/h (2 Bft) 98,08 %
02.03.2023 08:08 -0,6 C -1,1 C -5,0 C 81 % 1023,4 hPa 0,0 l/m 0 min 0 min 23 W/m 6,4 km/h (2 Bft) 97,56 %
02.03.2023 08:10 -0,6 C -1,1 C -5,0 C 81 % 1023,4 hPa 0,0 l/m 0 min 0 min 24 W/m 6,4 km/h (2 Bft) 93,62 %
02.03.2023 08:12 -0,5 C -1,1 C -5,0 C 81 % 1023,4 hPa 0,0 l/m 0 min 0 min 25 W/m 6,4 km/h (2 Bft) 91,49 %
02.03.2023 08:14 -0,5 C -1,1 C -4,4 C 81 % 1023,4 hPa 0,0 l/m 0 min 0 min 25 W/m 6,4 km/h (2 Bft) 95,74 %
02.03.2023 08:16 -0,5 C -1,1 C -4,4 C 81 % 1023,4 hPa 0,0 l/m 0 min 0 min 25 W/m 6,4 km/h (2 Bft) 91,49 %
02.03.2023 08:18 -0,4 C -1,1 C -4,4 C 81 % 1023,3 hPa 0,0 l/m 0 min 0 min 26 W/m 6,4 km/h (2 Bft) 97,87 %
02.03.2023 08:20 -0,4 C -1,1 C -4,4 C 81 % 1023,4 hPa 0,0 l/m 0 min 0 min 26 W/m 9,7 km/h (2 Bft) 95,74 %
02.03.2023 08:22 -0,4 C -1,1 C -4,4 C 80 % 1023,4 hPa 0,0 l/m 0 min 0 min 27 W/m 9,7 km/h (2 Bft) 91,30 %
02.03.2023 08:24 -0,3 C -0,6 C -4,4 C 80 % 1023,4 hPa 0,0 l/m 0 min 0 min 28 W/m 9,7 km/h (2 Bft) 95,74 %
02.03.2023 08:26 -0,3 C -0,6 C -4,4 C 80 % 1023,4 hPa 0,0 l/m 0 min 0 min 28 W/m 6,4 km/h (2 Bft) 93,62 %
02.03.2023 08:28 -0,3 C -0,6 C -4,4 C 80 % 1023,3 hPa 0,0 l/m 0 min 0 min 30 W/m 9,7 km/h (2 Bft) 93,62 %
02.03.2023 08:30 -0,2 C -0,6 C -4,4 C 80 % 1023,3 hPa 0,0 l/m 0 min 0 min 30 W/m 6,4 km/h (2 Bft) 95,74 %
02.03.2023 08:32 -0,2 C -0,6 C -4,4 C 80 % 1023,3 hPa 0,0 l/m 0 min 0 min 30 W/m 9,7 km/h (2 Bft) 93,62 %
02.03.2023 08:34 -0,2 C -0,6 C -4,4 C 80 % 1023,3 hPa 0,0 l/m 0 min 0 min 31 W/m 6,4 km/h (2 Bft) 93,48 %
02.03.2023 08:36 -0,1 C -0,6 C -4,4 C 80 % 1023,3 hPa 0,0 l/m 0 min 0 min 32 W/m 9,7 km/h (2 Bft) 82,98 %
02.03.2023 08:38 -0,1 C -0,6 C -3,9 C 80 % 1023,3 hPa 0,0 l/m 0 min 0 min 32 W/m 12,9 km/h (3 Bft) 87,23 %
02.03.2023 08:40 0,0 C 0,0 C -3,9 C 80 % 1023,3 hPa 0,0 l/m 0 min 0 min 32 W/m 9,7 km/h (2 Bft) 80,85 %
02.03.2023 08:42 0,1 C 0,0 C -3,9 C 80 % 1023,3 hPa 0,0 l/m 0 min 0 min 33 W/m 9,7 km/h (2 Bft) 91,49 %
02.03.2023 08:44 0,1 C 0,0 C -3,9 C 80 % 1023,4 hPa 0,0 l/m 0 min 0 min 33 W/m 9,7 km/h (2 Bft) 59,57 %
02.03.2023 08:46 0,2 C 0,0 C -3,9 C 80 % 1023,3 hPa 0,0 l/m 0 min 0 min 33 W/m 9,7 km/h (2 Bft) 89,36 %
02.03.2023 08:48 0,3 C 0,0 C -3,9 C 79 % 1023,4 hPa 0,0 l/m 0 min 0 min 53 W/m 9,7 km/h (2 Bft) 89,36 %
02.03.2023 08:50 0,3 C 0,0 C -3,9 C 79 % 1023,4 hPa 0,0 l/m 2 min 0 min 194 W/m 6,4 km/h (2 Bft) 80,43 %
02.03.2023 08:52 0,3 C 0,0 C -3,9 C 79 % 1023,4 hPa 0,0 l/m 2 min 0 min 200 W/m 6,4 km/h (2 Bft) 76,60 %
02.03.2023 08:54 0,4 C 1,1 C -3,9 C 79 % 1023,5 hPa 0,0 l/m 2 min 0 min 205 W/m 9,7 km/h (2 Bft) 87,23 %
02.03.2023 08:56 0,5 C 2,2 C -3,9 C 79 % 1023,5 hPa 0,0 l/m 2 min 0 min 204 W/m 6,4 km/h (2 Bft) 91,49 %
02.03.2023 08:58 0,6 C 3,9 C -3,9 C 79 % 1023,5 hPa 0,0 l/m 2 min 0 min 199 W/m 16,1 km/h (3 Bft) 95,74 %
02.03.2023 09:00 0,7 C 5,0 C -3,3 C 78 % 1023,5 hPa 0,0 l/m 2 min 0 min 178 W/m 6,4 km/h (2 Bft) 97,87 %
02.03.2023 09:02 0,8 C 6,7 C -3,3 C 78 % 1023,5 hPa 0,0 l/m 2 min 0 min 167 W/m 12,9 km/h (3 Bft) 65,96 %
02.03.2023 09:04 0,9 C 7,2 C -3,3 C 78 % 1023,6 hPa 0,0 l/m 2 min 0 min 177 W/m 6,4 km/h (2 Bft) 93,48 %
02.03.2023 09:06 1,1 C 7,2 C -3,3 C 78 % 1023,6 hPa 0,0 l/m 2 min 0 min 181 W/m 6,4 km/h (2 Bft) 100,00 %
02.03.2023 09:08 1,2 C 7,2 C -2,8 C 77 % 1023,6 hPa 0,0 l/m 2 min 0 min 237 W/m 12,9 km/h (3 Bft) 95,12 %
02.03.2023 09:10 1,3 C 7,2 C -2,8 C 77 % 1023,6 hPa 0,0 l/m 2 min 0 min 236 W/m 9,7 km/h (2 Bft) 78,72 %
02.03.2023 09:12 1,4 C 6,7 C -2,8 C 77 % 1023,6 hPa 0,0 l/m 2 min 0 min 239 W/m 6,4 km/h (2 Bft) 70,21 %
02.03.2023 09:14 1,6 C 6,7 C -2,8 C 77 % 1023,6 hPa 0,0 l/m 2 min 0 min 213 W/m 9,7 km/h (2 Bft) 78,72 %
02.03.2023 09:16 1,7 C 6,1 C -2,8 C 76 % 1023,6 hPa 0,0 l/m 2 min 0 min 172 W/m 12,9 km/h (3 Bft) 80,85 %
02.03.2023 09:18 1,8 C 6,1 C -2,8 C 76 % 1023,6 hPa 0,0 l/m 2 min 0 min 167 W/m 6,4 km/h (2 Bft) 89,13 %
02.03.2023 09:20 1,8 C 6,7 C -2,8 C 75 % 1023,6 hPa 0,0 l/m 2 min 0 min 169 W/m 12,9 km/h (3 Bft) 93,62 %
02.03.2023 09:22 1,9 C 6,7 C -2,2 C 75 % 1023,6 hPa 0,0 l/m 2 min 0 min 163 W/m 12,9 km/h (3 Bft) 93,62 %
02.03.2023 09:24 2,0 C 6,1 C -2,2 C 74 % 1023,6 hPa 0,0 l/m 2 min 0 min 184 W/m 16,1 km/h (3 Bft) 95,74 %
02.03.2023 09:26 2,1 C 6,1 C -2,2 C 74 % 1023,6 hPa 0,0 l/m 2 min 0 min 164 W/m 9,7 km/h (2 Bft) 100,00 %
02.03.2023 09:28 2,2 C 7,2 C -2,2 C 74 % 1023,6 hPa 0,0 l/m 2 min 0 min 178 W/m 9,7 km/h (2 Bft) 95,74 %
02.03.2023 09:30 2,2 C 7,8 C -2,2 C 74 % 1023,6 hPa 0,0 l/m 2 min 0 min 190 W/m 16,1 km/h (3 Bft) 93,48 %
02.03.2023 09:32 2,3 C 7,2 C -2,2 C 73 % 1023,6 hPa 0,0 l/m 2 min 0 min 223 W/m 19,3 km/h (3 Bft) 97,87 %
02.03.2023 09:34 2,3 C 6,7 C -2,2 C 73 % 1023,6 hPa 0,0 l/m 2 min 0 min 206 W/m 22,5 km/h (4 Bft) 95,74 %
02.03.2023 09:36 2,4 C 6,7 C -2,2 C 72 % 1023,6 hPa 0,0 l/m 2 min 0 min 188 W/m 16,1 km/h (3 Bft) 97,87 %
02.03.2023 09:38 2,4 C 7,2 C -2,2 C 72 % 1023,5 hPa 0,0 l/m 0 min 0 min 146 W/m 12,9 km/h (3 Bft) 97,87 %
02.03.2023 09:40 2,5 C 6,7 C -2,2 C 72 % 1023,6 hPa 0,0 l/m 2 min 0 min 164 W/m 19,3 km/h (3 Bft) 91,49 %
02.03.2023 09:42 2,6 C 7,2 C -1,7 C 72 % 1023,5 hPa 0,0 l/m 2 min 0 min 171 W/m 12,9 km/h (3 Bft) 95,74 %
02.03.2023 09:44 2,6 C 6,7 C -1,7 C 72 % 1023,5 hPa 0,0 l/m 2 min 0 min 244 W/m 12,9 km/h (3 Bft) 95,35 %
02.03.2023 09:46 2,7 C 6,7 C -1,7 C 72 % 1023,5 hPa 0,0 l/m 2 min 0 min 263 W/m 12,9 km/h (3 Bft) 94,00 %
02.03.2023 09:48 2,8 C 6,7 C -1,7 C 72 % 1023,5 hPa 0,0 l/m 0 min 0 min 89 W/m 9,7 km/h (2 Bft) 85,11 %
02.03.2023 09:50 2,8 C 6,7 C -1,7 C 71 % 1023,5 hPa 0,0 l/m 0 min 0 min 91 W/m 9,7 km/h (2 Bft) 82,98 %
02.03.2023 09:52 2,9 C 6,1 C -1,7 C 71 % 1023,5 hPa 0,0 l/m 0 min 0 min 65 W/m 9,7 km/h (2 Bft) 82,61 %
02.03.2023 09:54 3,1 C 6,7 C -1,1 C 71 % 1023,5 hPa 0,0 l/m 2 min 0 min 227 W/m 12,9 km/h (3 Bft) 93,62 %
02.03.2023 09:56 3,1 C 6,7 C -1,1 C 70 % 1023,5 hPa 0,0 l/m 2 min 0 min 231 W/m 12,9 km/h (3 Bft) 93,62 %
02.03.2023 09:58 3,2 C 7,8 C -1,1 C 70 % 1023,5 hPa 0,0 l/m 2 min 0 min 272 W/m 9,7 km/h (2 Bft) 93,62 %
02.03.2023 10:00 3,3 C 8,9 C -1,1 C 70 % 1023,5 hPa 0,0 l/m 2 min 0 min 333 W/m 16,1 km/h (3 Bft) 95,74 %
02.03.2023 10:02 3,3 C 9,4 C -1,1 C 69 % 1023,5 hPa 0,0 l/m 2 min 0 min 304 W/m 16,1 km/h (3 Bft) 95,74 %
02.03.2023 10:04 3,4 C 8,3 C -1,1 C 69 % 1023,5 hPa 0,0 l/m 2 min 0 min 234 W/m 16,1 km/h (3 Bft) 95,74 %
02.03.2023 10:06 3,5 C 8,3 C -0,6 C 70 % 1023,4 hPa 0,0 l/m 2 min 0 min 261 W/m 16,1 km/h (3 Bft) 98,28 %
02.03.2023 10:08 3,6 C 8,9 C -0,6 C 69 % 1023,4 hPa 0,0 l/m 2 min 0 min 234 W/m 12,9 km/h (3 Bft) 97,14 %
02.03.2023 10:10 3,7 C 9,4 C -0,6 C 69 % 1023,4 hPa 0,0 l/m 2 min 0 min 193 W/m 19,3 km/h (3 Bft) 93,62 %
02.03.2023 10:12 3,7 C 10,0 C -0,6 C 68 % 1023,4 hPa 0,0 l/m 0 min 0 min 134 W/m 12,9 km/h (3 Bft) 93,62 %
02.03.2023 10:14 3,8 C 10,6 C 0,0 C 69 % 1023,4 hPa 0,0 l/m 0 min 0 min 184 W/m 12,9 km/h (3 Bft) 95,74 %
02.03.2023 10:16 3,9 C 11,7 C 0,0 C 68 % 1023,3 hPa 0,0 l/m 2 min 0 min 211 W/m 9,7 km/h (2 Bft) 95,74 %
02.03.2023 10:18 4,0 C 12,2 C 0,0 C 68 % 1023,3 hPa 0,0 l/m 0 min 0 min 65 W/m 16,1 km/h (3 Bft) 95,65 %
02.03.2023 10:20 4,1 C 11,7 C 0,0 C 68 % 1023,3 hPa 0,0 l/m 0 min 0 min 160 W/m 12,9 km/h (3 Bft) 91,49 %
02.03.2023 10:22 4,2 C 12,8 C 0,0 C 67 % 1023,3 hPa 0,0 l/m 2 min 0 min 275 W/m 12,9 km/h (3 Bft) 89,36 %
02.03.2023 10:24 4,3 C 12,8 C 0,0 C 67 % 1023,3 hPa 0,0 l/m 2 min 0 min 374 W/m 19,3 km/h (3 Bft) 95,74 %
02.03.2023 10:26 4,3 C 13,9 C 0,6 C 67 % 1023,3 hPa 0,0 l/m 2 min 0 min 412 W/m 16,1 km/h (3 Bft) 89,36 %
02.03.2023 10:28 4,4 C 15,0 C 0,6 C 66 % 1023,2 hPa 0,0 l/m 2 min 0 min 354 W/m 9,7 km/h (2 Bft) 97,87 %
02.03.2023 10:30 4,6 C 15,6 C 0,6 C 67 % 1023,3 hPa 0,0 l/m 2 min 0 min 308 W/m 9,7 km/h (2 Bft) 97,87 %
02.03.2023 10:32 4,7 C 15,0 C 0,6 C 66 % 1023,3 hPa 0,0 l/m 2 min 0 min 380 W/m 22,5 km/h (4 Bft) 95,65 %
02.03.2023 10:34 4,8 C 15,6 C 1,1 C 66 % 1023,3 hPa 0,0 l/m 2 min 0 min 439 W/m 16,1 km/h (3 Bft) 97,87 %
02.03.2023 10:36 4,9 C 15,6 C 1,1 C 66 % 1023,3 hPa 0,0 l/m 2 min 0 min 436 W/m 19,3 km/h (3 Bft) 93,62 %
02.03.2023 10:38 5,0 C 14,4 C 1,1 C 65 % 1023,3 hPa 0,0 l/m 2 min 0 min 426 W/m 12,9 km/h (3 Bft) 97,87 %
02.03.2023 10:40 5,1 C 14,4 C 1,1 C 64 % 1023,3 hPa 0,0 l/m 2 min 0 min 383 W/m 12,9 km/h (3 Bft) 97,87 %
02.03.2023 10:42 5,1 C 15,0 C 1,1 C 64 % 1023,2 hPa 0,0 l/m 2 min 0 min 361 W/m 19,3 km/h (3 Bft) 100,00 %
02.03.2023 10:44 5,2 C 15,6 C 1,7 C 64 % 1023,3 hPa 0,0 l/m 2 min 0 min 380 W/m 12,9 km/h (3 Bft) 95,74 %
02.03.2023 10:46 5,2 C 15,6 C 1,7 C 64 % 1023,2 hPa 0,0 l/m 2 min 0 min 390 W/m 16,1 km/h (3 Bft) 93,48 %
02.03.2023 10:48 5,3 C 16,1 C 1,7 C 64 % 1023,2 hPa 0,0 l/m 2 min 0 min 387 W/m 9,7 km/h (2 Bft) 97,87 %
02.03.2023 10:50 5,5 C 16,7 C 2,2 C 64 % 1023,2 hPa 0,0 l/m 2 min 0 min 378 W/m 9,7 km/h (2 Bft) 97,87 %
02.03.2023 10:52 5,7 C 17,2 C 2,2 C 64 % 1023,2 hPa 0,0 l/m 2 min 0 min 348 W/m 12,9 km/h (3 Bft) 100,00 %
02.03.2023 10:54 5,8 C 17,2 C 2,2 C 63 % 1023,2 hPa 0,0 l/m 2 min 0 min 472 W/m 16,1 km/h (3 Bft) 100,00 %
02.03.2023 10:56 5,9 C 17,8 C 2,8 C 63 % 1023,2 hPa 0,0 l/m 2 min 0 min 478 W/m 9,7 km/h (2 Bft) 100,00 %
02.03.2023 10:58 6,0 C 17,8 C 3,3 C 62 % 1023,2 hPa 0,0 l/m 2 min 0 min 483 W/m 12,9 km/h (3 Bft) 93,62 %
02.03.2023 11:00 6,1 C 17,2 C 3,9 C 62 % 1023,2 hPa 0,0 l/m 2 min 0 min 486 W/m 12,9 km/h (3 Bft) 100,00 %
02.03.2023 11:02 6,2 C 17,8 C 5,0 C 61 % 1023,2 hPa 0,0 l/m 2 min 0 min 490 W/m 16,1 km/h (3 Bft) 93,62 %
02.03.2023 11:04 6,3 C 18,3 C 5,6 C 62 % 1023,2 hPa 0,0 l/m 2 min 0 min 495 W/m 9,7 km/h (2 Bft) 100,00 %
02.03.2023 11:06 6,4 C 18,3 C 6,7 C 61 % 1023,2 hPa 0,0 l/m 2 min 0 min 496 W/m 12,9 km/h (3 Bft) 100,00 %
02.03.2023 11:08 6,5 C 18,3 C 6,7 C 61 % 1023,2 hPa 0,0 l/m 2 min 0 min 498 W/m 16,1 km/h (3 Bft) 100,00 %
02.03.2023 11:10 6,6 C 17,2 C 7,8 C 60 % 1023,2 hPa 0,0 l/m 2 min 0 min 501 W/m 12,9 km/h (3 Bft) 100,00 %
02.03.2023 11:12 6,7 C 17,2 C 7,8 C 60 % 1023,3 hPa 0,0 l/m 2 min 0 min 504 W/m 12,9 km/h (3 Bft) 100,00 %
02.03.2023 11:14 6,8 C 17,2 C 7,8 C 60 % 1023,2 hPa 0,0 l/m 2 min 0 min 507 W/m 19,3 km/h (3 Bft) 95,65 %
02.03.2023 11:16 6,8 C 17,8 C 7,8 C 60 % 1023,1 hPa 0,0 l/m 2 min 0 min 511 W/m 9,7 km/h (2 Bft) 100,00 %
02.03.2023 11:18 6,9 C 18,3 C 7,2 C 59 % 1023,1 hPa 0,0 l/m 2 min 0 min 512 W/m 16,1 km/h (3 Bft) 100,00 %
02.03.2023 11:20 7,0 C 17,2 C 8,3 C 59 % 1023,2 hPa 0,0 l/m 2 min 0 min 515 W/m 12,9 km/h (3 Bft) 100,00 %
02.03.2023 11:22 7,1 C 18,3 C 7,8 C 59 % 1023,2 hPa 0,0 l/m 2 min 0 min 517 W/m 12,9 km/h (3 Bft) 100,00 %
02.03.2023 11:24 7,1 C 18,9 C 7,2 C 58 % 1023,1 hPa 0,0 l/m 2 min 0 min 519 W/m 19,3 km/h (3 Bft) 100,00 %
02.03.2023 11:26 7,1 C 18,3 C 7,2 C 58 % 1023,1 hPa 0,0 l/m 2 min 0 min 522 W/m 16,1 km/h (3 Bft) 97,83 %
02.03.2023 11:28 7,1 C 17,8 C 7,8 C 58 % 1023,1 hPa 0,0 l/m 2 min 0 min 524 W/m 19,3 km/h (3 Bft) 100,00 %
02.03.2023 11:30 7,1 C 17,8 C 7,8 C 57 % 1023,0 hPa 0,0 l/m 2 min 0 min 526 W/m 16,1 km/h (3 Bft) 97,87 %
02.03.2023 11:32 7,2 C 16,7 C 8,3 C 58 % 1023,1 hPa 0,0 l/m 2 min 0 min 528 W/m 12,9 km/h (3 Bft) 97,87 %
02.03.2023 11:34 7,3 C 16,1 C 8,3 C 58 % 1023,1 hPa 0,0 l/m 2 min 0 min 528 W/m 19,3 km/h (3 Bft) 97,87 %
02.03.2023 11:36 7,2 C 15,0 C 8,3 C 56 % 1023,0 hPa 0,0 l/m 2 min 0 min 529 W/m 12,9 km/h (3 Bft) 97,87 %
02.03.2023 11:38 7,2 C 16,1 C 8,3 C 57 % 1023,0 hPa 0,0 l/m 2 min 0 min 532 W/m 12,9 km/h (3 Bft) 97,87 %
02.03.2023 11:40 7,3 C 17,8 C 7,8 C 58 % 1023,0 hPa 0,0 l/m 2 min 0 min 534 W/m 9,7 km/h (2 Bft) 97,83 %
02.03.2023 11:42 7,4 C 18,9 C 7,2 C 59 % 1023,0 hPa 0,0 l/m 2 min 0 min 536 W/m 9,7 km/h (2 Bft) 97,87 %
02.03.2023 11:44 7,6 C 18,3 C 6,7 C 58 % 1023,0 hPa 0,0 l/m 2 min 0 min 538 W/m 9,7 km/h (2 Bft) 97,87 %
02.03.2023 11:46 7,7 C 16,7 C 6,1 C 57 % 1022,9 hPa 0,0 l/m 2 min 0 min 510 W/m 9,7 km/h (2 Bft) 97,87 %
02.03.2023 11:48 7,7 C 15,0 C 6,1 C 57 % 1022,9 hPa 0,0 l/m 2 min 0 min 439 W/m 12,9 km/h (3 Bft) 93,62 %
02.03.2023 11:50 7,8 C 13,3 C 6,1 C 56 % 1022,9 hPa 0,0 l/m 2 min 0 min 366 W/m 25,7 km/h (4 Bft) 95,74 %
02.03.2023 11:52 7,7 C 11,7 C 6,7 C 56 % 1022,9 hPa 0,0 l/m 2 min 0 min 334 W/m 12,9 km/h (3 Bft) 93,48 %
02.03.2023 11:54 7,7 C 11,1 C 6,1 C 56 % 1022,9 hPa 0,0 l/m 2 min 0 min 314 W/m 19,3 km/h (3 Bft) 93,62 %
02.03.2023 11:56 7,6 C 11,7 C 5,6 C 56 % 1022,9 hPa 0,0 l/m 2 min 0 min 256 W/m 16,1 km/h (3 Bft) 93,62 %
02.03.2023 11:58 7,6 C 12,2 C 5,6 C 56 % 1022,9 hPa 0,0 l/m 2 min 0 min 302 W/m 16,1 km/h (3 Bft) 93,62 %
02.03.2023 12:00 7,6 C 12,2 C 5,6 C 57 % 1022,9 hPa 0,0 l/m 2 min 0 min 428 W/m 6,4 km/h (2 Bft) 95,74 %
02.03.2023 12:02 7,7 C 12,2 C 5,6 C 57 % 1022,9 hPa 0,0 l/m 2 min 0 min 310 W/m 12,9 km/h (3 Bft) 95,74 %
02.03.2023 12:04 7,8 C 11,7 C 5,6 C 57 % 1022,9 hPa 0,0 l/m 0 min 0 min 203 W/m 16,1 km/h (3 Bft) 93,62 %
02.03.2023 12:07 7,7 C 10,6 C 5,6 C 55 % 1023,0 hPa 0,0 l/m 0 min 0 min 114 W/m 22,5 km/h (4 Bft) 97,18 %
02.03.2023 12:08 7,7 C 10,6 C 6,1 C 55 % 1023,0 hPa 0,0 l/m 0 min 0 min 74 W/m 6,4 km/h (2 Bft) 91,30 %
02.03.2023 12:12 7,8 C 9,4 C 5,6 C 56 % 1023,0 hPa 0,0 l/m 0 min 0 min 110 W/m 12,9 km/h (3 Bft) 96,00 %
02.03.2023 12:14 7,8 C 9,4 C 5,0 C 56 % 1022,9 hPa 0,0 l/m 0 min 0 min 70 W/m 6,4 km/h (2 Bft) 95,65 %
02.03.2023 12:16 7,9 C 9,4 C 4,4 C 56 % 1022,9 hPa 0,0 l/m 0 min 0 min 86 W/m 12,9 km/h (3 Bft) 97,87 %
02.03.2023 12:18 7,9 C 9,4 C 5,0 C 55 % 1022,9 hPa 0,0 l/m 0 min 0 min 77 W/m 9,7 km/h (2 Bft) 97,87 %
02.03.2023 12:20 7,9 C 9,4 C 5,0 C 56 % 1022,9 hPa 0,0 l/m 0 min 0 min 105 W/m 16,1 km/h (3 Bft) 97,87 %
02.03.2023 12:22 7,9 C 9,4 C 5,0 C 55 % 1023,0 hPa 0,0 l/m 0 min 0 min 210 W/m 16,1 km/h (3 Bft) 97,87 %
02.03.2023 12:24 7,8 C 10,0 C 5,6 C 55 % 1022,8 hPa 0,0 l/m 0 min 0 min 183 W/m 6,4 km/h (2 Bft) 97,87 %
02.03.2023 12:26 7,9 C 10,0 C 6,1 C 55 % 1022,9 hPa 0,0 l/m 0 min 0 min 188 W/m 19,3 km/h (3 Bft) 97,83 %
02.03.2023 12:28 7,8 C 10,0 C 5,6 C 55 % 1022,8 hPa 0,0 l/m 0 min 0 min 249 W/m 16,1 km/h (3 Bft) 97,87 %
02.03.2023 12:30 7,8 C 10,6 C 6,1 C 55 % 1022,8 hPa 0,0 l/m 0 min 0 min 157 W/m 19,3 km/h (3 Bft) 94,83 %
02.03.2023 12:32 7,8 C 10,6 C 5,6 C 55 % 1022,9 hPa 0,0 l/m 0 min 0 min 204 W/m 16,1 km/h (3 Bft) 97,83 %
02.03.2023 12:34 7,9 C 10,6 C 6,1 C 56 % 1022,9 hPa 0,0 l/m 2 min 0 min 265 W/m 12,9 km/h (3 Bft) 97,87 %
02.03.2023 12:36 7,9 C 10,0 C 6,1 C 55 % 1022,8 hPa 0,0 l/m 2 min 0 min 406 W/m 19,3 km/h (3 Bft) 97,87 %
02.03.2023 12:38 8,0 C 10,0 C 5,6 C 55 % 1022,8 hPa 0,0 l/m 2 min 0 min 286 W/m 9,7 km/h (2 Bft) 97,87 %
02.03.2023 12:40 8,1 C 10,6 C 5,6 C 56 % 1022,7 hPa 0,0 l/m 0 min 0 min 182 W/m 16,1 km/h (3 Bft) 97,87 %
02.03.2023 12:42 8,1 C 10,6 C 5,0 C 55 % 1022,7 hPa 0,0 l/m 2 min 0 min 308 W/m 12,9 km/h (3 Bft) 100,00 %
02.03.2023 12:44 8,2 C 10,6 C 4,4 C 55 % 1022,7 hPa 0,0 l/m 2 min 0 min 450 W/m 19,3 km/h (3 Bft) 100,00 %
02.03.2023 12:46 8,2 C 10,6 C 4,4 C 54 % 1022,7 hPa 0,0 l/m 2 min 0 min 537 W/m 12,9 km/h (3 Bft) 100,00 %
02.03.2023 12:48 8,2 C 11,7 C 4,4 C 55 % 1022,6 hPa 0,0 l/m 2 min 0 min 561 W/m 12,9 km/h (3 Bft) 100,00 %
02.03.2023 12:50 8,3 C 11,7 C 4,4 C 56 % 1022,6 hPa 0,0 l/m 2 min 0 min 566 W/m 12,9 km/h (3 Bft) 100,00 %
02.03.2023 12:52 8,4 C 12,8 C 4,4 C 56 % 1022,6 hPa 0,0 l/m 2 min 0 min 569 W/m 9,7 km/h (2 Bft) 100,00 %
02.03.2023 12:54 8,5 C 13,3 C 4,4 C 54 % 1022,7 hPa 0,0 l/m 2 min 0 min 566 W/m 12,9 km/h (3 Bft) 100,00 %
02.03.2023 12:56 8,6 C 13,9 C 4,4 C 55 % 1022,7 hPa 0,0 l/m 2 min 0 min 564 W/m 16,1 km/h (3 Bft) 100,00 %
02.03.2023 12:58 8,7 C 14,4 C 4,4 C 54 % 1022,6 hPa 0,0 l/m 2 min 0 min 567 W/m 16,1 km/h (3 Bft) 100,00 %
02.03.2023 13:00 8,8 C 15,6 C 4,4 C 54 % 1022,6 hPa 0,0 l/m 2 min 0 min 568 W/m 16,1 km/h (3 Bft) 97,83 %
02.03.2023 13:02 8,9 C 16,7 C 4,4 C 54 % 1022,6 hPa 0,0 l/m 2 min 0 min 569 W/m 22,5 km/h (4 Bft) 100,00 %
02.03.2023 13:04 8,9 C 16,7 C 4,4 C 54 % 1022,6 hPa 0,0 l/m 2 min 0 min 568 W/m 12,9 km/h (3 Bft) 97,87 %
02.03.2023 13:06 9,0 C 17,8 C 4,4 C 53 % 1022,6 hPa 0,0 l/m 2 min 0 min 568 W/m 12,9 km/h (3 Bft) 100,00 %
02.03.2023 13:08 9,1 C 18,9 C 4,4 C 54 % 1022,6 hPa 0,0 l/m 2 min 0 min 566 W/m 12,9 km/h (3 Bft) 100,00 %
02.03.2023 13:10 9,2 C 19,4 C 5,0 C 53 % 1022,5 hPa 0,0 l/m 2 min 0 min 564 W/m 12,9 km/h (3 Bft) 100,00 %
02.03.2023 13:12 9,4 C 20,6 C 5,0 C 53 % 1022,5 hPa 0,0 l/m 2 min 0 min 563 W/m 9,7 km/h (2 Bft) 100,00 %
02.03.2023 13:14 9,5 C 21,1 C 5,0 C 53 % 1022,5 hPa 0,0 l/m 2 min 0 min 562 W/m 16,1 km/h (3 Bft) 100,00 %
02.03.2023 13:16 9,6 C 20,0 C 5,0 C 53 % 1022,6 hPa 0,0 l/m 2 min 0 min 563 W/m 12,9 km/h (3 Bft) 100,00 %
02.03.2023 13:18 9,6 C 21,1 C 5,0 C 53 % 1022,4 hPa 0,0 l/m 2 min 0 min 563 W/m 6,4 km/h (2 Bft) 95,74 %
02.03.2023 13:20 9,7 C 20,0 C 5,0 C 54 % 1022,3 hPa 0,0 l/m 2 min 0 min 562 W/m 12,9 km/h (3 Bft) 97,87 %
02.03.2023 13:22 9,8 C 19,4 C 5,0 C 53 % 1022,3 hPa 0,0 l/m 2 min 0 min 561 W/m 9,7 km/h (2 Bft) 97,87 %
02.03.2023 13:24 9,8 C 20,0 C 5,0 C 52 % 1022,3 hPa 0,0 l/m 2 min 0 min 559 W/m 12,9 km/h (3 Bft) 97,87 %
02.03.2023 13:26 9,9 C 20,6 C 5,6 C 52 % 1022,3 hPa 0,0 l/m 2 min 0 min 559 W/m 12,9 km/h (3 Bft) 97,87 %
02.03.2023 13:28 10,0 C 20,6 C 5,6 C 52 % 1022,2 hPa 0,0 l/m 2 min 0 min 558 W/m 16,1 km/h (3 Bft) 95,65 %
02.03.2023 13:30 10,0 C 19,4 C 5,6 C 51 % 1022,3 hPa 0,0 l/m 2 min 0 min 556 W/m 16,1 km/h (3 Bft) 97,87 %
02.03.2023 13:32 10,1 C 20,0 C 5,6 C 52 % 1022,3 hPa 0,0 l/m 2 min 0 min 554 W/m 19,3 km/h (3 Bft) 91,49 %
02.03.2023 13:34 10,2 C 18,9 C 5,6 C 51 % 1022,2 hPa 0,0 l/m 2 min 0 min 551 W/m 16,1 km/h (3 Bft) 95,74 %
02.03.2023 13:36 10,2 C 17,8 C 5,6 C 50 % 1022,2 hPa 0,0 l/m 2 min 0 min 548 W/m 22,5 km/h (4 Bft) 97,87 %
02.03.2023 13:38 10,2 C 18,9 C 5,6 C 51 % 1022,2 hPa 0,0 l/m 2 min 0 min 548 W/m 9,7 km/h (2 Bft) 95,74 %
02.03.2023 13:40 10,2 C 18,3 C 5,6 C 51 % 1022,2 hPa 0,0 l/m 2 min 0 min 547 W/m 19,3 km/h (3 Bft) 95,74 %
02.03.2023 13:42 10,3 C 17,8 C 5,6 C 51 % 1022,2 hPa 0,0 l/m 2 min 0 min 547 W/m 22,5 km/h (4 Bft) 95,65 %
02.03.2023 13:44 10,3 C 17,2 C 5,6 C 50 % 1022,2 hPa 0,0 l/m 2 min 0 min 546 W/m 12,9 km/h (3 Bft) 95,74 %
02.03.2023 13:46 10,3 C 17,8 C 5,6 C 51 % 1022,2 hPa 0,0 l/m 2 min 0 min 542 W/m 9,7 km/h (2 Bft) 95,74 %
02.03.2023 13:48 10,4 C 17,8 C 5,6 C 50 % 1022,1 hPa 0,0 l/m 2 min 0 min 539 W/m 9,7 km/h (2 Bft) 93,62 %
02.03.2023 13:50 10,5 C 17,2 C 5,6 C 50 % 1022,1 hPa 0,0 l/m 2 min 0 min 538 W/m 9,7 km/h (2 Bft) 95,83 %
02.03.2023 13:52 10,6 C 16,7 C 5,6 C 50 % 1022,1 hPa 0,0 l/m 2 min 0 min 538 W/m 16,1 km/h (3 Bft) 95,74 %
02.03.2023 13:54 10,6 C 16,7 C 5,6 C 50 % 1022,1 hPa 0,0 l/m 2 min 0 min 538 W/m 19,3 km/h (3 Bft) 95,74 %
02.03.2023 13:56 10,7 C 16,7 C 5,6 C 50 % 1022,0 hPa 0,0 l/m 2 min 0 min 536 W/m 19,3 km/h (3 Bft) 93,62 %
02.03.2023 13:58 10,7 C 16,7 C 5,6 C 51 % 1022,0 hPa 0,0 l/m 2 min 0 min 535 W/m 16,1 km/h (3 Bft) 93,48 %
02.03.2023 14:00 10,8 C 16,7 C 5,6 C 50 % 1021,9 hPa 0,0 l/m 2 min 0 min 534 W/m 9,7 km/h (2 Bft) 95,74 %
02.03.2023 14:02 10,7 C 16,7 C 5,6 C 49 % 1021,9 hPa 0,0 l/m 2 min 0 min 534 W/m 12,9 km/h (3 Bft) 93,62 %
02.03.2023 14:04 10,7 C 16,7 C 5,6 C 49 % 1021,9 hPa 0,0 l/m 2 min 0 min 531 W/m 12,9 km/h (3 Bft) 93,62 %
02.03.2023 14:06 10,6 C 15,6 C 5,0 C 49 % 1021,8 hPa 0,0 l/m 2 min 0 min 527 W/m 22,5 km/h (4 Bft) 91,49 %
02.03.2023 14:08 10,6 C 15,6 C 5,6 C 50 % 1021,8 hPa 0,0 l/m 2 min 0 min 523 W/m 12,9 km/h (3 Bft) 97,87 %
02.03.2023 14:10 10,6 C 15,0 C 5,6 C 50 % 1021,9 hPa 0,0 l/m 2 min 0 min 520 W/m 22,5 km/h (4 Bft) 97,83 %
02.03.2023 14:12 10,5 C 15,6 C 5,0 C 50 % 1021,8 hPa 0,0 l/m 2 min 0 min 519 W/m 16,1 km/h (3 Bft) 100,00 %
02.03.2023 14:14 10,4 C 14,4 C 5,0 C 50 % 1021,7 hPa 0,0 l/m 2 min 0 min 515 W/m 19,3 km/h (3 Bft) 100,00 %
02.03.2023 14:16 10,4 C 15,0 C 5,6 C 51 % 1021,7 hPa 0,0 l/m 2 min 0 min 513 W/m 12,9 km/h (3 Bft) 100,00 %
02.03.2023 14:18 10,4 C 14,4 C 5,6 C 50 % 1021,7 hPa 0,0 l/m 2 min 0 min 511 W/m 19,3 km/h (3 Bft) 98,31 %
02.03.2023 14:20 10,4 C 14,4 C 5,6 C 51 % 1021,6 hPa 0,0 l/m 2 min 0 min 509 W/m 12,9 km/h (3 Bft) 95,35 %
02.03.2023 14:22 10,4 C 13,3 C 5,6 C 51 % 1021,6 hPa 0,0 l/m 2 min 0 min 506 W/m 22,5 km/h (4 Bft) 97,83 %
02.03.2023 14:24 10,5 C 13,3 C 5,6 C 51 % 1021,6 hPa 0,0 l/m 2 min 0 min 502 W/m 16,1 km/h (3 Bft) 100,00 %
02.03.2023 14:26 10,6 C 13,3 C 5,6 C 51 % 1021,6 hPa 0,0 l/m 2 min 0 min 499 W/m 9,7 km/h (2 Bft) 100,00 %
02.03.2023 14:28 10,6 C 12,8 C 5,6 C 50 % 1021,6 hPa 0,0 l/m 2 min 0 min 497 W/m 16,1 km/h (3 Bft) 97,87 %
02.03.2023 14:30 10,6 C 12,8 C 5,6 C 50 % 1021,6 hPa 0,0 l/m 2 min 0 min 495 W/m 19,3 km/h (3 Bft) 100,00 %
02.03.2023 14:32 10,6 C 13,3 C 5,6 C 50 % 1021,6 hPa 0,0 l/m 2 min 0 min 490 W/m 12,9 km/h (3 Bft) 100,00 %
02.03.2023 14:34 10,7 C 13,3 C 5,6 C 50 % 1021,6 hPa 0,0 l/m 2 min 0 min 489 W/m 19,3 km/h (3 Bft) 100,00 %
02.03.2023 14:36 10,6 C 13,3 C 5,6 C 50 % 1021,5 hPa 0,0 l/m 2 min 0 min 487 W/m 19,3 km/h (3 Bft) 100,00 %
02.03.2023 14:38 10,6 C 14,4 C 5,6 C 51 % 1021,6 hPa 0,0 l/m 2 min 0 min 483 W/m 19,3 km/h (3 Bft) 100,00 %
02.03.2023 14:40 10,6 C 15,0 C 5,6 C 51 % 1021,5 hPa 0,0 l/m 2 min 0 min 478 W/m 16,1 km/h (3 Bft) 95,74 %
02.03.2023 14:42 10,6 C 15,0 C 5,6 C 50 % 1021,5 hPa 0,0 l/m 2 min 0 min 475 W/m 12,9 km/h (3 Bft) 100,00 %
02.03.2023 14:44 10,6 C 14,4 C 5,6 C 51 % 1021,5 hPa 0,0 l/m 2 min 0 min 472 W/m 16,1 km/h (3 Bft) 100,00 %
02.03.2023 14:46 10,6 C 13,9 C 6,1 C 52 % 1021,6 hPa 0,0 l/m 2 min 0 min 468 W/m 12,9 km/h (3 Bft) 100,00 %
02.03.2023 14:48 10,7 C 13,9 C 6,1 C 50 % 1021,5 hPa 0,0 l/m 2 min 0 min 467 W/m 16,1 km/h (3 Bft) 97,83 %
02.03.2023 14:50 10,7 C 14,4 C 6,1 C 50 % 1021,5 hPa 0,0 l/m 2 min 0 min 463 W/m 22,5 km/h (4 Bft) 100,00 %
02.03.2023 14:52 10,7 C 15,0 C 6,1 C 50 % 1021,5 hPa 0,0 l/m 2 min 0 min 460 W/m 12,9 km/h (3 Bft) 100,00 %
02.03.2023 14:54 10,7 C 14,4 C 6,1 C 50 % 1021,5 hPa 0,0 l/m 2 min 0 min 455 W/m 12,9 km/h (3 Bft) 97,87 %
02.03.2023 14:56 10,7 C 14,4 C 6,1 C 50 % 1021,5 hPa 0,0 l/m 2 min 0 min 452 W/m 19,3 km/h (3 Bft) 100,00 %
02.03.2023 14:58 10,7 C 14,4 C 6,1 C 50 % 1021,5 hPa 0,0 l/m 2 min 0 min 449 W/m 16,1 km/h (3 Bft) 100,00 %
02.03.2023 15:00 10,7 C 14,4 C 6,1 C 50 % 1021,4 hPa 0,0 l/m 2 min 0 min 445 W/m 25,7 km/h (4 Bft) 97,87 %
02.03.2023 15:02 10,8 C 13,9 C 6,1 C 50 % 1021,4 hPa 0,0 l/m 2 min 0 min 440 W/m 19,3 km/h (3 Bft) 97,83 %
02.03.2023 15:04 10,8 C 13,3 C 6,1 C 50 % 1021,5 hPa 0,0 l/m 2 min 0 min 434 W/m 16,1 km/h (3 Bft) 100,00 %
02.03.2023 15:06 10,9 C 13,9 C 6,1 C 50 % 1021,4 hPa 0,0 l/m 2 min 0 min 432 W/m 9,7 km/h (2 Bft) 100,00 %
02.03.2023 15:08 10,9 C 14,4 C 6,1 C 50 % 1021,4 hPa 0,0 l/m 2 min 0 min 430 W/m 6,4 km/h (2 Bft) 97,87 %
02.03.2023 15:10 11,1 C 13,9 C 6,1 C 49 % 1021,4 hPa 0,0 l/m 2 min 0 min 424 W/m 16,1 km/h (3 Bft) 100,00 %
02.03.2023 15:12 11,1 C 13,9 C 6,7 C 49 % 1021,4 hPa 0,0 l/m 2 min 0 min 420 W/m 12,9 km/h (3 Bft) 97,87 %
02.03.2023 15:14 11,1 C 13,3 C 6,1 C 49 % 1021,3 hPa 0,0 l/m 2 min 0 min 416 W/m 19,3 km/h (3 Bft) 100,00 %
02.03.2023 15:16 11,2 C 13,3 C 6,1 C 49 % 1021,3 hPa 0,0 l/m 2 min 0 min 411 W/m 19,3 km/h (3 Bft) 97,87 %
02.03.2023 15:18 11,2 C 13,3 C 6,1 C 49 % 1021,3 hPa 0,0 l/m 2 min 0 min 408 W/m 16,1 km/h (3 Bft) 97,87 %
02.03.2023 15:20 11,2 C 13,9 C 6,7 C 49 % 1021,3 hPa 0,0 l/m 2 min 0 min 404 W/m 9,7 km/h (2 Bft) 97,87 %
02.03.2023 15:22 11,1 C 14,4 C 6,7 C 49 % 1021,2 hPa 0,0 l/m 2 min 0 min 403 W/m 12,9 km/h (3 Bft) 100,00 %
02.03.2023 15:24 11,1 C 14,4 C 6,7 C 50 % 1021,2 hPa 0,0 l/m 2 min 0 min 399 W/m 16,1 km/h (3 Bft) 97,87 %
02.03.2023 15:26 11,1 C 15,0 C 6,7 C 49 % 1021,2 hPa 0,0 l/m 2 min 0 min 393 W/m 9,7 km/h (2 Bft) 95,74 %
02.03.2023 15:28 11,1 C 14,4 C 6,1 C 49 % 1021,2 hPa 0,0 l/m 2 min 0 min 388 W/m 16,1 km/h (3 Bft) 95,74 %
02.03.2023 15:30 11,2 C 13,9 C 6,1 C 49 % 1021,2 hPa 0,0 l/m 2 min 0 min 384 W/m 19,3 km/h (3 Bft) 97,83 %
02.03.2023 15:32 11,2 C 13,9 C 6,1 C 49 % 1021,1 hPa 0,0 l/m 2 min 0 min 380 W/m 12,9 km/h (3 Bft) 95,74 %
02.03.2023 15:34 11,2 C 12,8 C 6,1 C 48 % 1021,2 hPa 0,0 l/m 2 min 0 min 376 W/m 25,7 km/h (4 Bft) 97,87 %
02.03.2023 15:36 11,2 C 12,8 C 6,1 C 48 % 1021,2 hPa 0,0 l/m 2 min 0 min 355 W/m 19,3 km/h (3 Bft) 97,87 %
02.03.2023 15:38 11,2 C 13,3 C 5,6 C 48 % 1021,2 hPa 0,0 l/m 2 min 0 min 354 W/m 12,9 km/h (3 Bft) 97,87 %
02.03.2023 15:40 11,2 C 13,9 C 5,6 C 48 % 1021,2 hPa 0,0 l/m 2 min 0 min 360 W/m 12,9 km/h (3 Bft) 97,87 %
02.03.2023 15:42 11,2 C 13,9 C 5,6 C 48 % 1021,1 hPa 0,0 l/m 2 min 0 min 356 W/m 16,1 km/h (3 Bft) 97,87 %
02.03.2023 15:44 11,2 C 13,9 C 5,6 C 48 % 1021,1 hPa 0,0 l/m 2 min 0 min 352 W/m 12,9 km/h (3 Bft) 97,83 %
02.03.2023 15:46 11,2 C 13,9 C 5,6 C 48 % 1021,1 hPa 0,0 l/m 2 min 0 min 348 W/m 22,5 km/h (4 Bft) 95,74 %
02.03.2023 15:48 11,2 C 14,4 C 5,6 C 48 % 1021,0 hPa 0,0 l/m 2 min 0 min 342 W/m 9,7 km/h (2 Bft) 97,87 %
02.03.2023 15:50 11,2 C 13,9 C 5,6 C 48 % 1021,1 hPa 0,0 l/m 2 min 0 min 337 W/m 12,9 km/h (3 Bft) 97,87 %
02.03.2023 15:52 11,2 C 14,4 C 5,6 C 48 % 1021,0 hPa 0,0 l/m 2 min 0 min 333 W/m 12,9 km/h (3 Bft) 97,87 %
02.03.2023 15:54 11,2 C 14,4 C 5,6 C 48 % 1021,0 hPa 0,0 l/m 2 min 0 min 328 W/m 19,3 km/h (3 Bft) 98,00 %
02.03.2023 15:56 11,3 C 14,4 C 5,6 C 48 % 1021,0 hPa 0,0 l/m 2 min 0 min 324 W/m 16,1 km/h (3 Bft) 97,83 %
02.03.2023 15:58 11,3 C 13,9 C 5,6 C 49 % 1021,0 hPa 0,0 l/m 2 min 0 min 316 W/m 12,9 km/h (3 Bft) 95,74 %
02.03.2023 16:00 11,3 C 13,9 C 5,0 C 49 % 1021,0 hPa 0,0 l/m 2 min 0 min 287 W/m 12,9 km/h (3 Bft) 89,36 %
02.03.2023 16:02 11,2 C 13,3 C 5,6 C 49 % 1021,0 hPa 0,0 l/m 2 min 0 min 308 W/m 12,9 km/h (3 Bft) 95,74 %
02.03.2023 16:04 11,2 C 12,8 C 5,6 C 49 % 1021,0 hPa 0,0 l/m 2 min 0 min 303 W/m 16,1 km/h (3 Bft) 95,74 %
02.03.2023 16:06 11,1 C 12,8 C 5,6 C 49 % 1021,0 hPa 0,0 l/m 2 min 0 min 296 W/m 9,7 km/h (2 Bft) 93,62 %
02.03.2023 16:08 11,1 C 12,8 C 5,0 C 49 % 1021,0 hPa 0,0 l/m 2 min 0 min 292 W/m 22,5 km/h (4 Bft) 95,65 %
02.03.2023 16:10 11,0 C 12,2 C 5,0 C 49 % 1021,0 hPa 0,0 l/m 2 min 0 min 286 W/m 25,7 km/h (4 Bft) 95,74 %
02.03.2023 16:12 10,9 C 11,1 C 5,0 C 49 % 1021,0 hPa 0,0 l/m 2 min 0 min 280 W/m 12,9 km/h (3 Bft) 95,74 %
02.03.2023 16:14 10,9 C 10,6 C 5,0 C 49 % 1021,0 hPa 0,0 l/m 2 min 0 min 273 W/m 16,1 km/h (3 Bft) 93,62 %
02.03.2023 16:16 10,8 C 10,6 C 5,0 C 50 % 1021,0 hPa 0,0 l/m 2 min 0 min 267 W/m 9,7 km/h (2 Bft) 91,49 %
02.03.2023 16:18 10,8 C 10,0 C 5,0 C 50 % 1020,9 hPa 0,0 l/m 2 min 0 min 262 W/m 19,3 km/h (3 Bft) 95,74 %
02.03.2023 16:20 10,7 C 10,0 C 5,0 C 50 % 1021,0 hPa 0,0 l/m 2 min 0 min 254 W/m 16,1 km/h (3 Bft) 97,87 %
02.03.2023 16:22 10,7 C 10,0 C 5,0 C 50 % 1021,0 hPa 0,0 l/m 2 min 0 min 245 W/m 19,3 km/h (3 Bft) 97,83 %
02.03.2023 16:24 10,6 C 10,0 C 5,0 C 50 % 1021,0 hPa 0,0 l/m 2 min 0 min 240 W/m 16,1 km/h (3 Bft) 95,74 %
02.03.2023 16:26 10,5 C 10,0 C 5,0 C 51 % 1021,0 hPa 0,0 l/m 2 min 0 min 236 W/m 22,5 km/h (4 Bft) 97,87 %
02.03.2023 16:28 10,4 C 9,4 C 5,0 C 51 % 1021,0 hPa 0,0 l/m 2 min 0 min 228 W/m 12,9 km/h (3 Bft) 95,74 %
02.03.2023 16:30 10,3 C 9,4 C 5,0 C 51 % 1021,0 hPa 0,0 l/m 2 min 0 min 222 W/m 16,1 km/h (3 Bft) 97,87 %
02.03.2023 16:32 10,3 C 9,4 C 5,0 C 51 % 1021,0 hPa 0,0 l/m 2 min 0 min 214 W/m 16,1 km/h (3 Bft) 97,87 %
02.03.2023 16:34 10,2 C 9,4 C 5,0 C 52 % 1021,0 hPa 0,0 l/m 2 min 0 min 207 W/m 12,9 km/h (3 Bft) 97,87 %
02.03.2023 16:36 10,1 C 9,4 C 5,0 C 52 % 1020,9 hPa 0,0 l/m 2 min 0 min 161 W/m 19,3 km/h (3 Bft) 97,83 %
02.03.2023 16:38 10,1 C 9,4 C 4,4 C 53 % 1020,9 hPa 0,0 l/m 0 min 0 min 76 W/m 12,9 km/h (3 Bft) 91,49 %
02.03.2023 16:40 10,0 C 9,4 C 5,0 C 53 % 1020,9 hPa 0,0 l/m 0 min 0 min 47 W/m 16,1 km/h (3 Bft) 100,00 %
02.03.2023 16:42 9,9 C 9,4 C 4,4 C 53 % 1021,0 hPa 0,0 l/m 0 min 0 min 44 W/m 12,9 km/h (3 Bft) 97,87 %
02.03.2023 16:44 9,9 C 9,4 C 4,4 C 53 % 1020,9 hPa 0,0 l/m 0 min 0 min 44 W/m 19,3 km/h (3 Bft) 97,87 %
02.03.2023 16:46 9,9 C 9,4 C 4,4 C 54 % 1020,9 hPa 0,0 l/m 0 min 0 min 42 W/m 9,7 km/h (2 Bft) 95,74 %
02.03.2023 16:48 9,8 C 9,4 C 4,4 C 54 % 1020,9 hPa 0,0 l/m 0 min 0 min 42 W/m 6,4 km/h (2 Bft) 97,83 %
02.03.2023 16:50 9,8 C 8,9 C 4,4 C 55 % 1020,9 hPa 0,0 l/m 0 min 0 min 41 W/m 12,9 km/h (3 Bft) 100,00 %
02.03.2023 16:52 9,7 C 8,9 C 4,4 C 55 % 1020,9 hPa 0,0 l/m 0 min 0 min 40 W/m 12,9 km/h (3 Bft) 97,87 %
02.03.2023 16:54 9,6 C 8,9 C 4,4 C 55 % 1020,9 hPa 0,0 l/m 0 min 0 min 40 W/m 12,9 km/h (3 Bft) 100,00 %
02.03.2023 16:56 9,6 C 8,9 C 4,4 C 54 % 1020,9 hPa 0,0 l/m 0 min 0 min 40 W/m 16,1 km/h (3 Bft) 100,00 %
02.03.2023 16:58 9,6 C 8,9 C 4,4 C 55 % 1020,9 hPa 0,0 l/m 0 min 0 min 40 W/m 16,1 km/h (3 Bft) 97,87 %
02.03.2023 17:00 9,5 C 8,9 C 4,4 C 55 % 1020,9 hPa 0,0 l/m 0 min 0 min 38 W/m 19,3 km/h (3 Bft) 97,87 %
02.03.2023 17:02 9,4 C 8,9 C 4,4 C 55 % 1021,0 hPa 0,0 l/m 0 min 0 min 36 W/m 19,3 km/h (3 Bft) 97,87 %
02.03.2023 17:04 9,4 C 8,9 C 4,4 C 55 % 1021,0 hPa 0,0 l/m 0 min 0 min 35 W/m 22,5 km/h (4 Bft) 95,65 %
02.03.2023 17:06 9,4 C 8,9 C 4,4 C 56 % 1021,0 hPa 0,0 l/m 0 min 0 min 35 W/m 9,7 km/h (2 Bft) 95,74 %
02.03.2023 17:08 9,3 C 8,3 C 4,4 C 56 % 1021,0 hPa 0,0 l/m 0 min 0 min 33 W/m 12,9 km/h (3 Bft) 97,87 %
02.03.2023 17:10 9,3 C 8,9 C 4,4 C 56 % 1021,0 hPa 0,0 l/m 0 min 0 min 33 W/m 19,3 km/h (3 Bft) 100,00 %
02.03.2023 17:12 9,2 C 8,3 C 4,4 C 56 % 1021,0 hPa 0,0 l/m 0 min 0 min 32 W/m 19,3 km/h (3 Bft) 97,87 %
02.03.2023 17:14 9,2 C 8,3 C 4,4 C 56 % 1021,0 hPa 0,0 l/m 0 min 0 min 32 W/m 16,1 km/h (3 Bft) 95,65 %
02.03.2023 17:16 9,2 C 8,3 C 3,9 C 56 % 1021,0 hPa 0,0 l/m 0 min 0 min 32 W/m 19,3 km/h (3 Bft) 95,74 %
02.03.2023 17:18 9,1 C 8,3 C 3,9 C 57 % 1021,1 hPa 0,0 l/m 0 min 0 min 30 W/m 22,5 km/h (4 Bft) 95,74 %
02.03.2023 17:20 9,1 C 8,3 C 3,9 C 57 % 1021,1 hPa 0,0 l/m 0 min 0 min 30 W/m 12,9 km/h (3 Bft) 97,87 %
02.03.2023 17:22 9,0 C 8,3 C 3,9 C 57 % 1021,1 hPa 0,0 l/m 0 min 0 min 29 W/m 16,1 km/h (3 Bft) 97,87 %
02.03.2023 17:24 8,9 C 8,3 C 3,9 C 57 % 1021,0 hPa 0,0 l/m 0 min 0 min 28 W/m 19,3 km/h (3 Bft) 95,74 %
02.03.2023 17:26 8,9 C 8,3 C 3,9 C 57 % 1021,0 hPa 0,0 l/m 0 min 0 min 27 W/m 12,9 km/h (3 Bft) 95,65 %
02.03.2023 17:28 8,9 C 8,3 C 3,9 C 57 % 1021,0 hPa 0,0 l/m 0 min 0 min 26 W/m 12,9 km/h (3 Bft) 97,87 %
02.03.2023 17:30 8,9 C 8,3 C 3,9 C 57 % 1021,0 hPa 0,0 l/m 0 min 0 min 25 W/m 16,1 km/h (3 Bft) 97,87 %
02.03.2023 17:32 8,8 C 7,8 C 3,9 C 57 % 1021,0 hPa 0,0 l/m 0 min 0 min 25 W/m 12,9 km/h (3 Bft) 97,87 %
02.03.2023 17:34 8,8 C 7,8 C 3,9 C 57 % 1021,0 hPa 0,0 l/m 0 min 0 min 24 W/m 22,5 km/h (4 Bft) 97,87 %
02.03.2023 17:36 8,8 C 7,8 C 3,9 C 57 % 1021,1 hPa 0,0 l/m 0 min 0 min 23 W/m 12,9 km/h (3 Bft) 97,87 %
02.03.2023 17:38 8,8 C 7,8 C 3,9 C 57 % 1021,1 hPa 0,0 l/m 0 min 0 min 22 W/m 12,9 km/h (3 Bft) 87,23 %
02.03.2023 17:40 8,7 C 7,8 C 3,3 C 57 % 1021,1 hPa 0,0 l/m 0 min 0 min 21 W/m 6,4 km/h (2 Bft) 95,93 %
02.03.2023 17:42 8,7 C 7,8 C 3,3 C 58 % 1021,2 hPa 0,0 l/m 0 min 0 min 21 W/m 6,4 km/h (2 Bft) 100,00 %
02.03.2023 17:44 8,7 C 7,8 C 3,3 C 58 % 1021,2 hPa 0,0 l/m 0 min 0 min 19 W/m 6,4 km/h (2 Bft) 95,74 %
02.03.2023 17:46 8,6 C 7,8 C 3,3 C 59 % 1021,2 hPa 0,0 l/m 0 min 0 min 19 W/m 12,9 km/h (3 Bft) 93,62 %
02.03.2023 17:48 8,6 C 7,2 C 3,3 C 59 % 1021,1 hPa 0,0 l/m 0 min 0 min 18 W/m 12,9 km/h (3 Bft) 97,87 %
02.03.2023 17:50 8,5 C 7,2 C 3,3 C 59 % 1021,1 hPa 0,0 l/m 0 min 0 min 17 W/m 19,3 km/h (3 Bft) 97,87 %
02.03.2023 17:52 8,4 C 7,2 C 3,3 C 59 % 1021,2 hPa 0,0 l/m 0 min 0 min 16 W/m 16,1 km/h (3 Bft) 97,87 %
02.03.2023 17:54 8,4 C 7,2 C 3,3 C 59 % 1021,2 hPa 0,0 l/m 0 min 0 min 15 W/m 12,9 km/h (3 Bft) 95,65 %
02.03.2023 17:56 8,3 C 7,2 C 3,3 C 59 % 1021,3 hPa 0,0 l/m 0 min 0 min 14 W/m 6,4 km/h (2 Bft) 97,87 %
02.03.2023 17:58 8,3 C 7,2 C 2,8 C 59 % 1021,2 hPa 0,0 l/m 0 min 0 min 13 W/m 6,4 km/h (2 Bft) 97,87 %
02.03.2023 18:00 8,2 C 7,2 C 2,8 C 60 % 1021,3 hPa 0,0 l/m 0 min 0 min 12 W/m 9,7 km/h (2 Bft) 97,87 %
02.03.2023 18:02 8,2 C 6,7 C 2,8 C 60 % 1021,3 hPa 0,0 l/m 0 min 0 min 11 W/m 6,4 km/h (2 Bft) 97,87 %
02.03.2023 18:04 8,1 C 6,7 C 2,8 C 60 % 1021,3 hPa 0,0 l/m 0 min 0 min 11 W/m 12,9 km/h (3 Bft) 95,74 %
02.03.2023 18:07 8,0 C 6,7 C 2,8 C 61 % 1021,4 hPa 0,0 l/m 0 min 0 min 9 W/m 12,9 km/h (3 Bft) 98,68 %
02.03.2023 18:08 8,0 C 6,7 C 2,8 C 61 % 1021,4 hPa 0,0 l/m 0 min 0 min 9 W/m 12,9 km/h (3 Bft) 95,83 %
02.03.2023 18:12 7,8 C 6,7 C 2,8 C 61 % 1021,4 hPa 0,0 l/m 0 min 0 min 6 W/m 12,9 km/h (3 Bft) 98,31 %
02.03.2023 18:14 7,8 C 6,7 C 2,8 C 61 % 1021,4 hPa 0,0 l/m 0 min 0 min 5 W/m 16,1 km/h (3 Bft) 100,00 %
02.03.2023 18:16 7,8 C 6,7 C 2,8 C 61 % 1021,4 hPa 0,0 l/m 0 min 0 min 5 W/m 12,9 km/h (3 Bft) 97,87 %
02.03.2023 18:18 7,7 C 6,7 C 2,8 C 62 % 1021,4 hPa 0,0 l/m 0 min 0 min 2 W/m 3,2 km/h (1 Bft) 100,00 %
02.03.2023 18:20 7,7 C 6,1 C 2,2 C 62 % 1021,5 hPa 0,0 l/m 0 min 0 min 0 W/m 9,7 km/h (2 Bft) 100,00 %
02.03.2023 18:22 7,6 C 6,7 C 2,2 C 62 % 1021,5 hPa 0,0 l/m 0 min 0 min 0 W/m 16,1 km/h (3 Bft) 100,00 %
02.03.2023 18:24 7,6 C 6,1 C 2,2 C 62 % 1021,4 hPa 0,0 l/m 0 min 0 min 0 W/m 12,9 km/h (3 Bft) 100,00 %
02.03.2023 18:26 7,5 C 6,1 C 2,2 C 63 % 1021,5 hPa 0,0 l/m 0 min 0 min 0 W/m 16,1 km/h (3 Bft) 100,00 %
02.03.2023 18:28 7,4 C 6,1 C 2,2 C 63 % 1021,6 hPa 0,0 l/m 0 min 0 min 0 W/m 6,4 km/h (2 Bft) 100,00 %
02.03.2023 18:30 7,4 C 6,1 C 2,2 C 63 % 1021,6 hPa 0,0 l/m 0 min 0 min 0 W/m 6,4 km/h (2 Bft) 97,87 %
02.03.2023 18:32 7,3 C 6,1 C 2,2 C 64 % 1021,7 hPa 0,0 l/m 0 min 0 min 0 W/m 6,4 km/h (2 Bft) 100,00 %
02.03.2023 18:34 7,3 C 5,6 C 1,7 C 64 % 1021,6 hPa 0,0 l/m 0 min 0 min 0 W/m 3,2 km/h (1 Bft) 97,87 %
02.03.2023 18:36 7,2 C 5,6 C 1,7 C 64 % 1021,7 hPa 0,0 l/m 0 min 0 min 0 W/m 3,2 km/h (1 Bft) 100,00 %
02.03.2023 18:38 7,2 C 5,6 C 1,7 C 64 % 1021,6 hPa 0,0 l/m 0 min 0 min 0 W/m 3,2 km/h (1 Bft) 97,87 %
02.03.2023 18:40 7,2 C 5,6 C 1,7 C 64 % 1021,7 hPa 0,0 l/m 0 min 0 min 0 W/m 6,4 km/h (2 Bft) 95,74 %
02.03.2023 18:42 7,1 C 5,6 C 1,7 C 64 % 1021,7 hPa 0,0 l/m 0 min 0 min 0 W/m 6,4 km/h (2 Bft) 97,87 %
02.03.2023 18:44 7,1 C 5,6 C 1,7 C 64 % 1021,8 hPa 0,0 l/m 0 min 0 min 0 W/m 3,2 km/h (1 Bft) 95,74 %
02.03.2023 18:46 7,0 C 5,6 C 1,7 C 64 % 1021,8 hPa 0,0 l/m 0 min 0 min 0 W/m 3,2 km/h (1 Bft) 95,65 %
02.03.2023 18:48 6,9 C 5,6 C 1,1 C 64 % 1021,8 hPa 0,0 l/m 0 min 0 min 0 W/m 6,4 km/h (2 Bft) 97,87 %
02.03.2023 18:50 6,9 C 5,6 C 1,1 C 65 % 1021,9 hPa 0,0 l/m 0 min 0 min 0 W/m 12,9 km/h (3 Bft) 95,74 %
02.03.2023 18:52 6,8 C 5,6 C 1,1 C 65 % 1021,9 hPa 0,0 l/m 0 min 0 min 0 W/m 6,4 km/h (2 Bft) 95,74 %
02.03.2023 18:54 6,7 C 5,0 C 1,1 C 65 % 1021,9 hPa 0,0 l/m 0 min 0 min 0 W/m 6,4 km/h (2 Bft) 95,74 %
02.03.2023 18:56 6,7 C 5,0 C 1,1 C 66 % 1021,9 hPa 0,0 l/m 0 min 0 min 0 W/m 3,2 km/h (1 Bft) 95,74 %
02.03.2023 18:58 6,6 C 5,0 C 1,1 C 66 % 1022,0 hPa 0,0 l/m 0 min 0 min 0 W/m 6,4 km/h (2 Bft) 95,74 %
02.03.2023 19:00 6,5 C 5,0 C 1,1 C 66 % 1022,0 hPa 0,0 l/m 0 min 0 min 0 W/m 3,2 km/h (1 Bft) 95,65 %
02.03.2023 19:02 6,5 C 5,0 C 1,1 C 66 % 1022,1 hPa 0,0 l/m 0 min 0 min 0 W/m 3,2 km/h (1 Bft) 93,62 %
02.03.2023 19:04 6,4 C 5,0 C 1,1 C 66 % 1022,1 hPa 0,0 l/m 0 min 0 min 0 W/m 6,4 km/h (2 Bft) 91,49 %
02.03.2023 19:06 6,3 C 4,4 C 0,6 C 67 % 1022,1 hPa 0,0 l/m 0 min 0 min 0 W/m 3,2 km/h (1 Bft) 95,74 %
02.03.2023 19:08 6,3 C 4,4 C 0,6 C 67 % 1022,1 hPa 0,0 l/m 0 min 0 min 0 W/m 3,2 km/h (1 Bft) 96,23 %
02.03.2023 19:10 6,3 C 4,4 C 0,6 C 67 % 1022,1 hPa 0,0 l/m 0 min 0 min 0 W/m 3,2 km/h (1 Bft) 95,74 %
02.03.2023 19:12 6,2 C 4,4 C 0,6 C 67 % 1022,1 hPa 0,0 l/m 0 min 0 min 0 W/m 3,2 km/h (1 Bft) 95,74 %
02.03.2023 19:14 6,2 C 4,4 C 0,6 C 67 % 1022,2 hPa 0,0 l/m 0 min 0 min 0 W/m 3,2 km/h (1 Bft) 95,74 %
02.03.2023 19:16 6,1 C 4,4 C 0,6 C 67 % 1022,2 hPa 0,0 l/m 0 min 0 min 0 W/m 9,7 km/h (2 Bft) 97,87 %
02.03.2023 19:18 6,1 C 4,4 C 0,6 C 68 % 1022,2 hPa 0,0 l/m 0 min 0 min 0 W/m 6,4 km/h (2 Bft) 86,96 %
02.03.2023 19:20 6,0 C 4,4 C 0,6 C 68 % 1022,2 hPa 0,0 l/m 0 min 0 min 0 W/m 3,2 km/h (1 Bft) 95,74 %
02.03.2023 19:22 5,9 C 4,4 C 0,6 C 67 % 1022,3 hPa 0,0 l/m 0 min 0 min 0 W/m 0,0 km/h (0 Bft) 95,83 %
02.03.2023 19:24 5,9 C 4,4 C 0,6 C 68 % 1022,3 hPa 0,0 l/m 0 min 0 min 0 W/m 3,2 km/h (1 Bft) 97,87 %
02.03.2023 19:26 5,9 C 4,4 C 0,6 C 68 % 1022,3 hPa 0,0 l/m 0 min 0 min 0 W/m 9,7 km/h (2 Bft) 97,87 %
02.03.2023 19:28 5,8 C 4,4 C 0,6 C 68 % 1022,4 hPa 0,0 l/m 0 min 0 min 0 W/m 3,2 km/h (1 Bft) 95,74 %
02.03.2023 19:30 5,8 C 4,4 C 0,6 C 69 % 1022,5 hPa 0,0 l/m 0 min 0 min 0 W/m 9,7 km/h (2 Bft) 97,83 %
02.03.2023 19:32 5,7 C 4,4 C 0,6 C 69 % 1022,4 hPa 0,0 l/m 0 min 0 min 0 W/m 9,7 km/h (2 Bft) 93,75 %
02.03.2023 19:34 5,7 C 4,4 C 0,6 C 69 % 1022,5 hPa 0,0 l/m 0 min 0 min 0 W/m 12,9 km/h (3 Bft) 95,74 %
02.03.2023 19:36 5,7 C 4,4 C 0,6 C 70 % 1022,5 hPa 0,0 l/m 0 min 0 min 0 W/m 9,7 km/h (2 Bft) 93,62 %
02.03.2023 19:38 5,7 C 4,4 C 0,6 C 71 % 1022,5 hPa 0,0 l/m 0 min 0 min 0 W/m 9,7 km/h (2 Bft) 97,87 %
02.03.2023 19:40 5,6 C 4,4 C 0,6 C 72 % 1022,5 hPa 0,0 l/m 0 min 0 min 0 W/m 9,7 km/h (2 Bft) 97,87 %
02.03.2023 19:42 5,6 C 4,4 C 0,6 C 73 % 1022,5 hPa 0,0 l/m 0 min 0 min 0 W/m 16,1 km/h (3 Bft) 93,62 %
02.03.2023 19:44 5,6 C 4,4 C 0,6 C 73 % 1022,5 hPa 0,0 l/m 0 min 0 min 0 W/m 12,9 km/h (3 Bft) 97,83 %
02.03.2023 19:46 5,6 C 4,4 C 0,6 C 73 % 1022,6 hPa 0,0 l/m 0 min 0 min 0 W/m 6,4 km/h (2 Bft) 93,62 %
02.03.2023 19:48 5,6 C 4,4 C 0,6 C 74 % 1022,6 hPa 0,0 l/m 0 min 0 min 0 W/m 19,3 km/h (3 Bft) 97,87 %
02.03.2023 19:50 5,6 C 4,4 C 0,6 C 75 % 1022,6 hPa 0,0 l/m 0 min 0 min 0 W/m 19,3 km/h (3 Bft) 97,87 %
02.03.2023 19:52 5,6 C 4,4 C 0,6 C 76 % 1022,6 hPa 0,0 l/m 0 min 0 min 0 W/m 16,1 km/h (3 Bft) 94,74 %
02.03.2023 19:54 5,6 C 4,4 C 0,6 C 76 % 1022,6 hPa 0,0 l/m 0 min 0 min 0 W/m 12,9 km/h (3 Bft) 97,87 %
02.03.2023 19:56 5,5 C 4,4 C 0,6 C 76 % 1022,6 hPa 0,0 l/m 0 min 0 min 0 W/m 6,4 km/h (2 Bft) 97,87 %
02.03.2023 19:58 5,5 C 4,4 C 0,6 C 77 % 1022,7 hPa 0,0 l/m 0 min 0 min 0 W/m 12,9 km/h (3 Bft) 97,87 %
02.03.2023 20:00 5,4 C 4,4 C 0,6 C 77 % 1022,7 hPa 0,0 l/m 0 min 0 min 0 W/m 9,7 km/h (2 Bft) 97,87 %
02.03.2023 20:02 5,4 C 4,4 C 0,6 C 77 % 1022,7 hPa 0,0 l/m 0 min 0 min 0 W/m 6,4 km/h (2 Bft) 100,00 %
02.03.2023 20:04 5,4 C 4,4 C 0,6 C 77 % 1022,7 hPa 0,0 l/m 0 min 0 min 0 W/m 9,7 km/h (2 Bft) 98,15 %
02.03.2023 20:06 5,3 C 4,4 C 0,6 C 77 % 1022,8 hPa 0,0 l/m 0 min 0 min 0 W/m 9,7 km/h (2 Bft) 100,00 %
02.03.2023 20:08 5,3 C 4,4 C 0,6 C 77 % 1022,8 hPa 0,0 l/m 0 min 0 min 0 W/m 12,9 km/h (3 Bft) 100,00 %
02.03.2023 20:10 5,3 C 3,9 C 0,6 C 78 % 1022,8 hPa 0,0 l/m 0 min 0 min 0 W/m 9,7 km/h (2 Bft) 100,00 %
02.03.2023 20:12 5,2 C 3,9 C 0,0 C 78 % 1022,8 hPa 0,0 l/m 0 min 0 min 0 W/m 6,4 km/h (2 Bft) 100,00 %
02.03.2023 20:14 5,2 C 3,9 C 0,0 C 78 % 1022,9 hPa 0,0 l/m 0 min 0 min 0 W/m 9,7 km/h (2 Bft) 100,00 %
02.03.2023 20:16 5,1 C 3,9 C 0,0 C 78 % 1022,9 hPa 0,0 l/m 0 min 0 min 0 W/m 9,7 km/h (2 Bft) 100,00 %
02.03.2023 20:18 5,1 C 3,9 C 0,0 C 78 % 1022,9 hPa 0,0 l/m 0 min 0 min 0 W/m 9,7 km/h (2 Bft) 97,87 %
02.03.2023 20:20 5,1 C 3,9 C 0,0 C 78 % 1022,9 hPa 0,0 l/m 0 min 0 min 0 W/m 6,4 km/h (2 Bft) 100,00 %
02.03.2023 20:22 5,0 C 3,9 C 0,0 C 78 % 1022,9 hPa 0,0 l/m 0 min 0 min 0 W/m 9,7 km/h (2 Bft) 100,00 %
02.03.2023 20:24 4,9 C 3,9 C 0,0 C 79 % 1022,9 hPa 0,0 l/m 0 min 0 min 0 W/m 12,9 km/h (3 Bft) 95,74 %
02.03.2023 20:26 4,9 C 3,9 C 0,0 C 79 % 1023,0 hPa 0,0 l/m 0 min 0 min 0 W/m 6,4 km/h (2 Bft) 100,00 %
02.03.2023 20:28 4,9 C 3,9 C 0,0 C 79 % 1022,9 hPa 0,0 l/m 0 min 0 min 0 W/m 12,9 km/h (3 Bft) 100,00 %
02.03.2023 20:30 4,8 C 3,3 C 0,0 C 79 % 1023,0 hPa 0,0 l/m 0 min 0 min 0 W/m 3,2 km/h (1 Bft) 100,00 %
02.03.2023 20:32 4,8 C 3,3 C 0,0 C 79 % 1023,0 hPa 0,0 l/m 0 min 0 min 0 W/m 3,2 km/h (1 Bft) 97,83 %
02.03.2023 20:34 4,8 C 3,3 C -0,6 C 79 % 1023,0 hPa 0,0 l/m 0 min 0 min 0 W/m 3,2 km/h (1 Bft) 93,62 %
02.03.2023 20:36 4,7 C 3,3 C -0,6 C 79 % 1023,0 hPa 0,0 l/m 0 min 0 min 0 W/m 3,2 km/h (1 Bft) 95,74 %
02.03.2023 20:38 4,7 C 3,3 C -0,6 C 79 % 1023,0 hPa 0,0 l/m 0 min 0 min 0 W/m 3,2 km/h (1 Bft) 93,62 %
02.03.2023 20:40 4,7 C 3,3 C -0,6 C 79 % 1023,0 hPa 0,0 l/m 0 min 0 min 0 W/m 6,4 km/h (2 Bft) 97,14 %
02.03.2023 20:42 4,6 C 3,3 C -0,6 C 79 % 1023,0 hPa 0,0 l/m 0 min 0 min 0 W/m 6,4 km/h (2 Bft) 97,87 %
02.03.2023 20:44 4,6 C 3,3 C -0,6 C 79 % 1023,0 hPa 0,0 l/m 0 min 0 min 0 W/m 6,4 km/h (2 Bft) 97,87 %
02.03.2023 20:46 4,6 C 2,8 C -0,6 C 79 % 1022,9 hPa 0,0 l/m 0 min 0 min 0 W/m 6,4 km/h (2 Bft) 93,62 %
02.03.2023 20:48 4,5 C 2,8 C -0,6 C 79 % 1023,0 hPa 0,0 l/m 0 min 0 min 0 W/m 6,4 km/h (2 Bft) 97,87 %
02.03.2023 20:50 4,4 C 2,8 C -0,6 C 79 % 1022,9 hPa 0,0 l/m 0 min 0 min 0 W/m 6,4 km/h (2 Bft) 98,18 %
02.03.2023 20:52 4,3 C 2,8 C -0,6 C 79 % 1022,9 hPa 0,0 l/m 0 min 0 min 0 W/m 9,7 km/h (2 Bft) 97,83 %
02.03.2023 20:54 4,3 C 2,8 C -0,6 C 80 % 1023,0 hPa 0,0 l/m 0 min 0 min 0 W/m 3,2 km/h (1 Bft) 97,87 %
02.03.2023 20:56 4,3 C 2,8 C -0,6 C 80 % 1023,0 hPa 0,0 l/m 0 min 0 min 0 W/m 6,4 km/h (2 Bft) 95,74 %
02.03.2023 20:58 4,2 C 2,8 C -0,6 C 80 % 1023,0 hPa 0,0 l/m 0 min 0 min 0 W/m 9,7 km/h (2 Bft) 97,87 %
02.03.2023 21:00 4,2 C 2,8 C -0,6 C 80 % 1023,0 hPa 0,0 l/m 0 min 0 min 0 W/m 3,2 km/h (1 Bft) 97,87 %
02.03.2023 21:02 4,1 C 2,8 C -0,6 C 80 % 1023,0 hPa 0,0 l/m 0 min 0 min 0 W/m 6,4 km/h (2 Bft) 96,00 %
02.03.2023 21:04 4,1 C 2,8 C -0,6 C 81 % 1023,0 hPa 0,0 l/m 0 min 0 min 0 W/m 6,4 km/h (2 Bft) 100,00 %
02.03.2023 21:06 4,0 C 2,8 C -0,6 C 81 % 1023,0 hPa 0,0 l/m 0 min 0 min 0 W/m 12,9 km/h (3 Bft) 97,92 %
02.03.2023 21:08 4,0 C 2,8 C -0,6 C 81 % 1023,0 hPa 0,0 l/m 0 min 0 min 0 W/m 9,7 km/h (2 Bft) 97,87 %
02.03.2023 21:10 3,9 C 2,8 C -1,1 C 81 % 1023,0 hPa 0,0 l/m 0 min 0 min 0 W/m 3,2 km/h (1 Bft) 100,00 %
02.03.2023 21:12 3,9 C 2,8 C -1,1 C 81 % 1023,0 hPa 0,0 l/m 0 min 0 min 0 W/m 6,4 km/h (2 Bft) 100,00 %
02.03.2023 21:14 3,9 C 2,8 C -1,1 C 82 % 1023,0 hPa 0,0 l/m 0 min 0 min 0 W/m 9,7 km/h (2 Bft) 100,00 %
02.03.2023 21:16 3,8 C 2,8 C -1,1 C 82 % 1023,1 hPa 0,0 l/m 0 min 0 min 0 W/m 6,4 km/h (2 Bft) 100,00 %
02.03.2023 21:18 3,8 C 2,8 C -1,1 C 82 % 1023,1 hPa 0,0 l/m 0 min 0 min 0 W/m 9,7 km/h (2 Bft) 97,83 %
02.03.2023 21:20 3,8 C 2,8 C -1,1 C 82 % 1023,1 hPa 0,0 l/m 0 min 0 min 0 W/m 6,4 km/h (2 Bft) 97,87 %
02.03.2023 21:22 3,7 C 2,8 C -1,1 C 82 % 1023,1 hPa 0,0 l/m 0 min 0 min 0 W/m 9,7 km/h (2 Bft) 95,74 %
02.03.2023 21:24 3,7 C 2,8 C -1,1 C 82 % 1023,2 hPa 0,0 l/m 0 min 0 min 0 W/m 9,7 km/h (2 Bft) 97,87 %
02.03.2023 21:26 3,6 C 2,8 C -1,1 C 82 % 1023,2 hPa 0,0 l/m 0 min 0 min 0 W/m 9,7 km/h (2 Bft) 95,74 %
02.03.2023 21:28 3,6 C 2,8 C -1,1 C 82 % 1023,2 hPa 0,0 l/m 0 min 0 min 0 W/m 19,3 km/h (3 Bft) 95,92 %
02.03.2023 21:30 3,6 C 2,2 C -1,1 C 83 % 1023,3 hPa 0,0 l/m 0 min 0 min 0 W/m 6,4 km/h (2 Bft) 93,48 %
02.03.2023 21:32 3,5 C 2,2 C -1,1 C 83 % 1023,3 hPa 0,0 l/m 0 min 0 min 0 W/m 6,4 km/h (2 Bft) 91,49 %
02.03.2023 21:34 3,5 C 2,2 C -1,1 C 83 % 1023,3 hPa 0,0 l/m 0 min 0 min 0 W/m 16,1 km/h (3 Bft) 97,87 %
02.03.2023 21:36 3,4 C 2,2 C -1,1 C 83 % 1023,3 hPa 0,0 l/m 0 min 0 min 0 W/m 6,4 km/h (2 Bft) 97,87 %
02.03.2023 21:38 3,4 C 2,2 C -1,1 C 83 % 1023,4 hPa 0,0 l/m 0 min 0 min 0 W/m 3,2 km/h (1 Bft) 97,87 %
02.03.2023 21:40 3,4 C 2,2 C -1,1 C 83 % 1023,4 hPa 0,0 l/m 0 min 0 min 0 W/m 6,4 km/h (2 Bft) 97,87 %
02.03.2023 21:42 3,3 C 2,2 C -1,7 C 83 % 1023,3 hPa 0,0 l/m 0 min 0 min 0 W/m 6,4 km/h (2 Bft) 97,87 %
02.03.2023 21:44 3,3 C 2,2 C -1,7 C 84 % 1023,3 hPa 0,0 l/m 0 min 0 min 0 W/m 3,2 km/h (1 Bft) 97,83 %
02.03.2023 21:46 3,3 C 2,2 C -1,7 C 84 % 1023,3 hPa 0,0 l/m 0 min 0 min 0 W/m 12,9 km/h (3 Bft) 95,83 %
02.03.2023 21:48 3,2 C 2,2 C -1,7 C 84 % 1023,3 hPa 0,0 l/m 0 min 0 min 0 W/m 12,9 km/h (3 Bft) 97,87 %
02.03.2023 21:50 3,2 C 2,2 C -1,7 C 84 % 1023,4 hPa 0,0 l/m 0 min 0 min 0 W/m 9,7 km/h (2 Bft) 53,49 %
02.03.2023 21:52 3,2 C 2,2 C -1,7 C 84 % 1023,4 hPa 0,0 l/m 0 min 0 min 0 W/m 3,2 km/h (1 Bft) 100,00 %
02.03.2023 21:54 3,2 C 1,7 C -1,7 C 84 % 1023,4 hPa 0,0 l/m 0 min 0 min 0 W/m 12,9 km/h (3 Bft) 100,00 %
02.03.2023 21:56 3,1 C 2,2 C -1,7 C 84 % 1023,4 hPa 0,0 l/m 0 min 0 min 0 W/m 6,4 km/h (2 Bft) 100,00 %
02.03.2023 21:58 3,1 C 1,7 C -1,7 C 84 % 1023,4 hPa 0,0 l/m 0 min 0 min 0 W/m 9,7 km/h (2 Bft) 100,00 %
02.03.2023 22:00 3,1 C 1,7 C -1,7 C 84 % 1023,4 hPa 0,0 l/m 0 min 0 min 0 W/m 3,2 km/h (1 Bft) 100,00 %
02.03.2023 22:02 3,0 C 1,7 C -1,7 C 84 % 1023,5 hPa 0,0 l/m 0 min 0 min 0 W/m 6,4 km/h (2 Bft) 100,00 %
02.03.2023 22:04 3,0 C 1,7 C -1,7 C 84 % 1023,5 hPa 0,0 l/m 0 min 0 min 0 W/m 6,4 km/h (2 Bft) 100,00 %
02.03.2023 22:06 2,9 C 1,7 C -2,2 C 84 % 1023,5 hPa 0,0 l/m 0 min 0 min 0 W/m 9,7 km/h (2 Bft) 100,00 %
02.03.2023 22:08 2,9 C 1,7 C -2,2 C 84 % 1023,5 hPa 0,0 l/m 0 min 0 min 0 W/m 6,4 km/h (2 Bft) 97,92 %
02.03.2023 22:10 2,8 C 1,7 C -2,2 C 85 % 1023,5 hPa 0,0 l/m 0 min 0 min 0 W/m 6,4 km/h (2 Bft) 95,74 %
02.03.2023 22:12 2,8 C 1,1 C -2,2 C 85 % 1023,4 hPa 0,0 l/m 0 min 0 min 0 W/m 6,4 km/h (2 Bft) 95,65 %
02.03.2023 22:14 2,7 C 1,1 C -2,2 C 85 % 1023,4 hPa 0,0 l/m 0 min 0 min 0 W/m 9,7 km/h (2 Bft) 97,87 %
02.03.2023 22:16 2,7 C 1,7 C -2,2 C 85 % 1023,4 hPa 0,0 l/m 0 min 0 min 0 W/m 6,4 km/h (2 Bft) 92,11 %
02.03.2023 22:18 2,7 C 1,1 C -2,2 C 85 % 1023,4 hPa 0,0 l/m 0 min 0 min 0 W/m 3,2 km/h (1 Bft) 91,49 %
02.03.2023 22:20 2,6 C 1,1 C -2,2 C 85 % 1023,4 hPa 0,0 l/m 0 min 0 min 0 W/m 6,4 km/h (2 Bft) 93,62 %
02.03.2023 22:22 2,6 C 1,1 C -2,2 C 85 % 1023,4 hPa 0,0 l/m 0 min 0 min 0 W/m 6,4 km/h (2 Bft) 95,74 %
02.03.2023 22:24 2,6 C 1,1 C -2,2 C 85 % 1023,4 hPa 0,0 l/m 0 min 0 min 0 W/m 3,2 km/h (1 Bft) 95,65 %
02.03.2023 22:26 2,5 C 1,1 C -2,2 C 86 % 1023,4 hPa 0,0 l/m 0 min 0 min 0 W/m 6,4 km/h (2 Bft) 93,62 %
02.03.2023 22:28 2,5 C 1,1 C -2,2 C 86 % 1023,4 hPa 0,0 l/m 0 min 0 min 0 W/m 9,7 km/h (2 Bft) 95,74 %
02.03.2023 22:30 2,4 C 1,1 C -2,2 C 86 % 1023,4 hPa 0,0 l/m 0 min 0 min 0 W/m 6,4 km/h (2 Bft) 92,73 %
02.03.2023 22:32 2,4 C 1,1 C -2,2 C 86 % 1023,4 hPa 0,0 l/m 0 min 0 min 0 W/m 3,2 km/h (1 Bft) 95,74 %
02.03.2023 22:34 2,4 C 1,1 C -2,2 C 86 % 1023,4 hPa 0,0 l/m 0 min 0 min 0 W/m 6,4 km/h (2 Bft) 95,74 %
02.03.2023 22:36 2,3 C 1,1 C -2,2 C 86 % 1023,4 hPa 0,0 l/m 0 min 0 min 0 W/m 9,7 km/h (2 Bft) 97,87 %
02.03.2023 22:38 2,3 C 1,1 C -2,2 C 86 % 1023,4 hPa 0,0 l/m 0 min 0 min 0 W/m 9,7 km/h (2 Bft) 95,65 %
02.03.2023 22:40 2,3 C 1,1 C -2,2 C 86 % 1023,4 hPa 0,0 l/m 0 min 0 min 0 W/m 9,7 km/h (2 Bft) 95,83 %
02.03.2023 22:42 2,3 C 1,1 C -2,2 C 86 % 1023,4 hPa 0,0 l/m 0 min 0 min 0 W/m 6,4 km/h (2 Bft) 97,87 %
02.03.2023 22:44 2,2 C 1,1 C -2,2 C 86 % 1023,4 hPa 0,0 l/m 0 min 0 min 0 W/m 6,4 km/h (2 Bft) 97,87 %
02.03.2023 22:46 2,2 C 1,1 C -2,2 C 87 % 1023,3 hPa 0,0 l/m 0 min 0 min 0 W/m 9,7 km/h (2 Bft) 97,30 %
02.03.2023 22:48 2,2 C 1,1 C -2,2 C 87 % 1023,3 hPa 0,0 l/m 0 min 0 min 0 W/m 9,7 km/h (2 Bft) 95,74 %
02.03.2023 22:50 2,1 C 1,1 C -2,8 C 87 % 1023,3 hPa 0,0 l/m 0 min 0 min 0 W/m 3,2 km/h (1 Bft) 95,74 %
02.03.2023 22:52 2,1 C 1,1 C -2,8 C 87 % 1023,3 hPa 0,0 l/m 0 min 0 min 0 W/m 12,9 km/h (3 Bft) 97,87 %
02.03.2023 22:54 2,1 C 1,1 C -2,8 C 87 % 1023,3 hPa 0,0 l/m 0 min 0 min 0 W/m 6,4 km/h (2 Bft) 97,87 %
02.03.2023 22:56 2,1 C 1,1 C -2,2 C 87 % 1023,3 hPa 0,0 l/m 0 min 0 min 0 W/m 9,7 km/h (2 Bft) 97,83 %
02.03.2023 22:58 2,0 C 1,1 C -2,8 C 87 % 1023,3 hPa 0,0 l/m 0 min 0 min 0 W/m 3,2 km/h (1 Bft) 95,74 %
02.03.2023 23:00 1,9 C 0,6 C -2,8 C 87 % 1023,3 hPa 0,0 l/m 0 min 0 min 0 W/m 6,4 km/h (2 Bft) 97,92 %
02.03.2023 23:02 1,9 C 1,1 C -2,8 C 88 % 1023,3 hPa 0,0 l/m 0 min 0 min 0 W/m 6,4 km/h (2 Bft) 97,83 %
02.03.2023 23:04 1,9 C 0,6 C -2,8 C 87 % 1023,3 hPa 0,0 l/m 0 min 0 min 0 W/m 6,4 km/h (2 Bft) 95,74 %
02.03.2023 23:06 1,9 C 0,6 C -2,8 C 88 % 1023,3 hPa 0,0 l/m 0 min 0 min 0 W/m 3,2 km/h (1 Bft) 96,61 %
02.03.2023 23:08 1,9 C 0,6 C -2,8 C 88 % 1023,3 hPa 0,0 l/m 0 min 0 min 0 W/m 9,7 km/h (2 Bft) 94,29 %
02.03.2023 23:10 1,8 C 0,6 C -2,8 C 88 % 1023,3 hPa 0,0 l/m 0 min 0 min 0 W/m 3,2 km/h (1 Bft) 97,87 %
02.03.2023 23:12 1,8 C 0,6 C -2,8 C 88 % 1023,3 hPa 0,0 l/m 0 min 0 min 0 W/m 12,9 km/h (3 Bft) 93,62 %
02.03.2023 23:14 1,8 C 0,6 C -2,8 C 88 % 1023,3 hPa 0,0 l/m 0 min 0 min 0 W/m 6,4 km/h (2 Bft) 95,74 %
02.03.2023 23:16 1,8 C 0,6 C -2,8 C 88 % 1023,3 hPa 0,0 l/m 0 min 0 min 0 W/m 16,1 km/h (3 Bft) 95,65 %
02.03.2023 23:18 1,8 C 0,6 C -2,8 C 88 % 1023,3 hPa 0,0 l/m 0 min 0 min 0 W/m 3,2 km/h (1 Bft) 93,62 %
02.03.2023 23:20 1,7 C 0,6 C -2,8 C 88 % 1023,2 hPa 0,0 l/m 0 min 0 min 0 W/m 6,4 km/h (2 Bft) 95,74 %
02.03.2023 23:22 1,7 C 0,6 C -2,8 C 88 % 1023,3 hPa 0,0 l/m 0 min 0 min 0 W/m 3,2 km/h (1 Bft) 97,87 %
02.03.2023 23:24 1,7 C 0,6 C -2,8 C 88 % 1023,3 hPa 0,0 l/m 0 min 0 min 0 W/m 3,2 km/h (1 Bft) 54,55 %
02.03.2023 23:26 1,6 C 0,6 C -2,8 C 88 % 1023,3 hPa 0,0 l/m 0 min 0 min 0 W/m 3,2 km/h (1 Bft) 95,12 %
02.03.2023 23:28 1,6 C 0,6 C -2,8 C 89 % 1023,3 hPa 0,0 l/m 0 min 0 min 0 W/m 9,7 km/h (2 Bft) 97,87 %
02.03.2023 23:30 1,6 C 0,6 C -2,8 C 89 % 1023,3 hPa 0,0 l/m 0 min 0 min 0 W/m 3,2 km/h (1 Bft) 97,83 %
02.03.2023 23:32 1,6 C 0,6 C -2,8 C 89 % 1023,4 hPa 0,0 l/m 0 min 0 min 0 W/m 3,2 km/h (1 Bft) 97,87 %
02.03.2023 23:34 1,5 C 0,6 C -2,8 C 89 % 1023,3 hPa 0,0 l/m 0 min 0 min 0 W/m 3,2 km/h (1 Bft) 98,11 %
02.03.2023 23:36 1,5 C 0,6 C -2,8 C 89 % 1023,4 hPa 0,0 l/m 0 min 0 min 0 W/m 6,4 km/h (2 Bft) 93,62 %
02.03.2023 23:38 1,5 C 0,6 C -2,8 C 89 % 1023,4 hPa 0,0 l/m 0 min 0 min 0 W/m 6,4 km/h (2 Bft) 95,74 %
02.03.2023 23:40 1,4 C 0,6 C -2,8 C 89 % 1023,4 hPa 0,0 l/m 0 min 0 min 0 W/m 6,4 km/h (2 Bft) 100,00 %
02.03.2023 23:42 1,4 C 0,0 C -3,3 C 89 % 1023,4 hPa 0,0 l/m 0 min 0 min 0 W/m 6,4 km/h (2 Bft) 100,00 %
02.03.2023 23:44 1,4 C 0,6 C -3,3 C 89 % 1023,4 hPa 0,0 l/m 0 min 0 min 0 W/m 12,9 km/h (3 Bft) 100,00 %
02.03.2023 23:46 1,4 C 0,6 C -2,8 C 89 % 1023,3 hPa 0,0 l/m 0 min 0 min 0 W/m 9,7 km/h (2 Bft) 97,87 %
02.03.2023 23:48 1,4 C 0,6 C -2,8 C 89 % 1023,3 hPa 0,0 l/m 0 min 0 min 0 W/m 6,4 km/h (2 Bft) 97,83 %
02.03.2023 23:50 1,3 C 0,0 C -3,3 C 89 % 1023,3 hPa 0,0 l/m 0 min 0 min 0 W/m 6,4 km/h (2 Bft) 97,87 %
02.03.2023 23:52 1,3 C 0,0 C -3,3 C 89 % 1023,4 hPa 0,0 l/m 0 min 0 min 0 W/m 6,4 km/h (2 Bft) 95,74 %
02.03.2023 23:54 1,3 C 0,0 C -3,3 C 89 % 1023,4 hPa 0,0 l/m 0 min 0 min 0 W/m 6,4 km/h (2 Bft) 95,74 %
02.03.2023 23:56 1,3 C 0,0 C -3,3 C 90 % 1023,4 hPa 0,0 l/m 0 min 0 min 0 W/m 6,4 km/h (2 Bft) 95,74 %
02.03.2023 23:58 1,2 C 0,0 C -3,3 C 90 % 1023,3 hPa 0,0 l/m 0 min 0 min 0 W/m 6,4 km/h (2 Bft) 97,67 %
_ Min-Zeit 04:04 02:46 02:42 15:34 16:18 - - - - 00:10 03:02
Minimum _ -1,2 C -2,2 C -5,6 C 48 % 1020,9 hPa - - - - 0,0 km/h (0 Bft) 36,36 %
_ Max-Zeit 15:56 13:14 11:20 23:56 01:08 00:00 08:50 00:00 12:52 11:50 00:00
Maximum _ 11,3 C 21,1 C 8,3 C 90 % 1024,4 hPa 0,0 l/m 2 min 0 min 569 W/m 25,7 km/h
NO (4 Bft)
100,00 %
Durchschnitt _ 3,9 C 4,9 C -0,5 C 71 % 1022,9 hPa #0,0 l/m #7:00 h #0 min. 271 W/m 9,3 km/h (2 Bft) 96,13 %
© 2023 W. Hausmann